Observation data for Fort Chadbourne on 10/13/2019      Previous  Date       Current Mesonet Observations  Soil Data  Daily Summary Page  Observations in Plain Language
KCH1 130500Z 18003KT 11/03 A3002 RMK A01 T01140027  RH  055%=      5-min Rain = 0
KCH1 130501Z 18003KT 11/03 A3002 RMK A01 T01140027  RH  055%=      5-min Rain = 0
KCH1 130502Z 18003KT 11/03 A3002 RMK A01 T01140027  RH  055%=      5-min Rain = 0
KCH1 130503Z 18004KT 11/03 A3002 RMK A01 T01140028  RH  055%=      5-min Rain = 0
KCH1 130504Z 18004KT 11/03 A3002 RMK A01 T01140028  RH  055%=      5-min Rain = 0
KCH1 130505Z 18004KT 11/03 A3002 RMK A01 T01140027  RH  055%=      5-min Rain = 0
KCH1 130506Z 18004KT 11/03 A3002 RMK A01 T01140027  RH  055%=      5-min Rain = 0
KCH1 130507Z 18004KT 11/03 A3002 RMK A01 T01140027  RH  055%=      5-min Rain = 0
KCH1 130508Z 18004KT 11/03 A3002 RMK A01 T01140027  RH  055%=      5-min Rain = 0
KCH1 130509Z 18003KT 11/03 A3002 RMK A01 T01140028  RH  055%=      5-min Rain = 0
KCH1 130510Z 18003KT 11/03 A3002 RMK A01 T01130028  RH  056%=      5-min Rain = 0
KCH1 130511Z 19002KT 11/03 A3002 RMK A01 T01130027  RH  055%=      5-min Rain = 0
KCH1 130512Z 18002KT 11/03 A3002 RMK A01 T01130027  RH  055%=      5-min Rain = 0
KCH1 130513Z 19001KT 11/03 A3002 RMK A01 T01130027  RH  056%=      5-min Rain = 0
KCH1 130514Z 19000KT 11/03 A3002 RMK A01 T01130028  RH  056%=      5-min Rain = 0
KCH1 130515Z 00000KT 11/03 A3002 RMK A01 T01120030  RH  057%=      5-min Rain = 0
KCH1 130516Z 00000KT 11/03 A3002 RMK A01 T01110032  RH  058%=      5-min Rain = 0
KCH1 130517Z 22000KT 11/03 A3002 RMK A01 T01100032  RH  059%=      5-min Rain = 0
KCH1 130518Z 00000KT 11/03 A3002 RMK A01 T01090029  RH  058%=      5-min Rain = 0
KCH1 130519Z 00000KT 11/03 A3002 RMK A01 T01090029  RH  058%=      5-min Rain = 0
KCH1 130520Z 00000KT 11/03 A3002 RMK A01 T01100028  RH  057%=      5-min Rain = 0
KCH1 130521Z 00000KT 11/03 A3002 RMK A01 T01090028  RH  057%=      5-min Rain = 0
KCH1 130522Z 00000KT 11/03 A3002 RMK A01 T01100028  RH  057%=      5-min Rain = 0
KCH1 130523Z 00000KT 11/03 A3002 RMK A01 T01100028  RH  057%=      5-min Rain = 0
KCH1 130524Z 00000KT 11/03 A3002 RMK A01 T01100028  RH  057%=      5-min Rain = 0
KCH1 130525Z 00000KT 11/03 A3002 RMK A01 T01100028  RH  057%=      5-min Rain = 0
KCH1 130526Z 00000KT 11/03 A3002 RMK A01 T01100027  RH  057%=      5-min Rain = 0
KCH1 130527Z 00000KT 11/03 A3002 RMK A01 T01090027  RH  057%=      5-min Rain = 0
KCH1 130528Z 19001KT 11/03 A3002 RMK A01 T01100027  RH  057%=      5-min Rain = 0
KCH1 130529Z 17001KT 11/03 A3002 RMK A01 T01090026  RH  057%=      5-min Rain = 0
KCH1 130530Z 18001KT 11/03 A3002 RMK A01 T01090026  RH  057%=      5-min Rain = 0
KCH1 130531Z 18002KT 11/03 A3002 RMK A01 T01090027  RH  057%=      5-min Rain = 0
KCH1 130532Z 19002KT 11/03 A3002 RMK A01 T01100027  RH  057%=      5-min Rain = 0
KCH1 130533Z 18002KT 11/03 A3002 RMK A01 T01110027  RH  056%=      5-min Rain = 0
KCH1 130534Z 19002KT 11/03 A3002 RMK A01 T01110027  RH  056%=      5-min Rain = 0
KCH1 130535Z 19001KT 11/03 A3002 RMK A01 T01120028  RH  056%=      5-min Rain = 0
KCH1 130536Z 19002KT 11/03 A3002 RMK A01 T01120028  RH  056%=      5-min Rain = 0
KCH1 130537Z 18002KT 11/03 A3002 RMK A01 T01120028  RH  056%=      5-min Rain = 0
KCH1 130538Z 19001KT 11/03 A3002 RMK A01 T01120029  RH  057%=      5-min Rain = 0
KCH1 130539Z 19002KT 11/03 A3002 RMK A01 T01120029  RH  057%=      5-min Rain = 0
KCH1 130540Z 19002KT 11/03 A3002 RMK A01 T01110029  RH  057%=      5-min Rain = 0
KCH1 130541Z 19001KT 11/03 A3002 RMK A01 T01110029  RH  057%=      5-min Rain = 0
KCH1 130542Z 19001KT 11/03 A3002 RMK A01 T01110030  RH  058%=      5-min Rain = 0
KCH1 130543Z 20001KT 11/03 A3002 RMK A01 T01100031  RH  058%=      5-min Rain = 0
KCH1 130544Z 20001KT 11/03 A3002 RMK A01 T01090031  RH  058%=      5-min Rain = 0
KCH1 130545Z 21000KT 11/03 A3002 RMK A01 T01090031  RH  059%=      5-min Rain = 0
KCH1 130546Z 23001KT 11/03 A3002 RMK A01 T01090031  RH  059%=      5-min Rain = 0
KCH1 130547Z 22001KT 11/03 A3002 RMK A01 T01090031  RH  059%=      5-min Rain = 0
KCH1 130548Z 00000KT 11/03 A3002 RMK A01 T01090031  RH  059%=      5-min Rain = 0
KCH1 130549Z 00000KT 11/03 A3002 RMK A01 T01080031  RH  059%=      5-min Rain = 0
KCH1 130550Z 00000KT 11/03 A3002 RMK A01 T01080031  RH  059%=      5-min Rain = 0
KCH1 130551Z 00000KT 11/03 A3002 RMK A01 T01080031  RH  059%=      5-min Rain = 0
KCH1 130552Z 18000KT 11/03 A3002 RMK A01 T01080031  RH  059%=      5-min Rain = 0
KCH1 130553Z 16000KT 11/03 A3002 RMK A01 T01080034  RH  060%=      5-min Rain = 0
KCH1 130554Z 00000KT 11/03 A3002 RMK A01 T01060033  RH  061%=      5-min Rain = 0
KCH1 130555Z 00000KT 10/04 A3002 RMK A01 T01040035  RH  062%=      5-min Rain = 0
KCH1 130556Z 13001KT 10/03 A3002 RMK A01 T01030033  RH  062%=      5-min Rain = 0
KCH1 130557Z 15002KT 10/03 A3002 RMK A01 T01020031  RH  061%=      5-min Rain = 0
KCH1 130558Z 15002KT 10/03 A3002 RMK A01 T01010030  RH  061%=      5-min Rain = 0
KCH1 130559Z 15002KT 10/03 A3002 RMK A01 T01010034  RH  063%=      5-min Rain = 0
KCH1 130600Z 14001KT 10/04 A3002 RMK A01 T00990035  RH  064%=      5-min Rain = 0
KCH1 130601Z 13001KT 10/04 A3002 RMK A01 T00970037  RH  066%=      5-min Rain = 0
KCH1 130602Z 11001KT 10/04 A3002 RMK A01 T00950038  RH  067%=      5-min Rain = 0
KCH1 130603Z 11002KT 09/04 A3002 RMK A01 T00930037  RH  068%=      5-min Rain = 0
KCH1 130604Z 11002KT 09/03 A3002 RMK A01 T00920034  RH  067%=      5-min Rain = 0
KCH1 130605Z 12001KT 09/03 A3002 RMK A01 T00920034  RH  067%=      5-min Rain = 0
KCH1 130606Z 12002KT 09/03 A3002 RMK A01 T00920034  RH  067%=      5-min Rain = 0
KCH1 130607Z 12002KT 09/03 A3002 RMK A01 T00930034  RH  067%=      5-min Rain = 0
KCH1 130608Z 13002KT 09/03 A3002 RMK A01 T00930034  RH  066%=      5-min Rain = 0
KCH1 130609Z 12002KT 09/03 A3002 RMK A01 T00940034  RH  066%=      5-min Rain = 0
KCH1 130610Z 13002KT 09/03 A3002 RMK A01 T00940034  RH  066%=      5-min Rain = 0
KCH1 130611Z 14002KT 09/03 A3002 RMK A01 T00940034  RH  066%=      5-min Rain = 0
KCH1 130612Z 14002KT 10/03 A3002 RMK A01 T00950034  RH  066%=      5-min Rain = 0
KCH1 130613Z 15002KT 10/03 A3002 RMK A01 T00950033  RH  065%=      5-min Rain = 0
KCH1 130614Z 15002KT 10/03 A3002 RMK A01 T00950033  RH  065%=      5-min Rain = 0
KCH1 130615Z 15002KT 10/03 A3002 RMK A01 T00950033  RH  065%=      5-min Rain = 0
KCH1 130616Z 16001KT 10/03 A3002 RMK A01 T00950032  RH  065%=      5-min Rain = 0
KCH1 130617Z 17002KT 10/03 A3002 RMK A01 T00950032  RH  065%=      5-min Rain = 0
KCH1 130618Z 17002KT 10/03 A3002 RMK A01 T00960033  RH  065%=      5-min Rain = 0
KCH1 130619Z 17002KT 10/03 A3002 RMK A01 T00960034  RH  065%=      5-min Rain = 0
KCH1 130620Z 16003KT 10/03 A3002 RMK A01 T00960032  RH  064%=      5-min Rain = 0
KCH1 130621Z 16003KT 10/03 A3002 RMK A01 T00970032  RH  064%=      5-min Rain = 0
KCH1 130622Z 17002KT 10/03 A3002 RMK A01 T00980032  RH  064%=      5-min Rain = 0
KCH1 130623Z 17002KT 10/03 A3002 RMK A01 T00990033  RH  064%=      5-min Rain = 0
KCH1 130624Z 18002KT 10/03 A3002 RMK A01 T00990034  RH  064%=      5-min Rain = 0
KCH1 130625Z 18002KT 10/03 A3002 RMK A01 T00980033  RH  064%=      5-min Rain = 0
KCH1 130626Z 18002KT 10/03 A3002 RMK A01 T00990034  RH  064%=      5-min Rain = 0
KCH1 130627Z 18002KT 10/04 A3002 RMK A01 T00990035  RH  065%=      5-min Rain = 0
KCH1 130628Z 18002KT 10/04 A3002 RMK A01 T00980035  RH  065%=      5-min Rain = 0
KCH1 130629Z 18002KT 10/04 A3002 RMK A01 T00980036  RH  065%=      5-min Rain = 0
KCH1 130630Z 18002KT 10/04 A3002 RMK A01 T00980035  RH  065%=      5-min Rain = 0
KCH1 130631Z 19002KT 10/04 A3002 RMK A01 T00980035  RH  065%=      5-min Rain = 0
KCH1 130632Z 19002KT 10/04 A3002 RMK A01 T00980036  RH  065%=      5-min Rain = 0
KCH1 130633Z 19002KT 10/04 A3002 RMK A01 T00980036  RH  065%=      5-min Rain = 0
KCH1 130634Z 19001KT 10/04 A3002 RMK A01 T00970036  RH  065%=      5-min Rain = 0
KCH1 130635Z 19001KT 10/04 A3002 RMK A01 T00970036  RH  065%=      5-min Rain = 0
KCH1 130636Z 19000KT 10/04 A3002 RMK A01 T00970036  RH  066%=      5-min Rain = 0
KCH1 130637Z 20001KT 10/04 A3002 RMK A01 T00970036  RH  066%=      5-min Rain = 0
KCH1 130638Z 22000KT 10/04 A3002 RMK A01 T00970036  RH  065%=      5-min Rain = 0
KCH1 130639Z 20000KT 10/04 A3002 RMK A01 T00970035  RH  066%=      5-min Rain = 0
KCH1 130640Z 00000KT 10/04 A3002 RMK A01 T00970036  RH  066%=      5-min Rain = 0
KCH1 130641Z 00000KT 10/04 A3002 RMK A01 T00970036  RH  066%=      5-min Rain = 0
KCH1 130642Z 19000KT 10/04 A3002 RMK A01 T00970036  RH  066%=      5-min Rain = 0
KCH1 130643Z 17001KT 10/04 A3002 RMK A01 T00970036  RH  066%=      5-min Rain = 0
KCH1 130644Z 18002KT 10/04 A3002 RMK A01 T00970037  RH  066%=      5-min Rain = 0
KCH1 130645Z 16001KT 10/04 A3002 RMK A01 T00980037  RH  066%=      5-min Rain = 0
KCH1 130646Z 16002KT 10/04 A3002 RMK A01 T00980037  RH  066%=      5-min Rain = 0
KCH1 130647Z 15002KT 10/04 A3002 RMK A01 T00980037  RH  066%=      5-min Rain = 0
KCH1 130648Z 16002KT 10/04 A3002 RMK A01 T00980037  RH  066%=      5-min Rain = 0
KCH1 130649Z 15002KT 10/04 A3002 RMK A01 T00980036  RH  065%=      5-min Rain = 0
KCH1 130650Z 16002KT 10/04 A3002 RMK A01 T00990037  RH  066%=      5-min Rain = 0
KCH1 130651Z 15002KT 10/04 A3002 RMK A01 T00990038  RH  066%=      5-min Rain = 0
KCH1 130652Z 13002KT 10/04 A3001 RMK A01 T00970040  RH  067%=      5-min Rain = 0
KCH1 130653Z 13002KT 09/04 A3001 RMK A01 T00940042  RH  070%=      5-min Rain = 0
KCH1 130654Z 11001KT 09/04 A3002 RMK A01 T00900042  RH  072%=      5-min Rain = 0
KCH1 130655Z 10002KT 09/04 A3002 RMK A01 T00850041  RH  074%=      5-min Rain = 0
KCH1 130656Z 11001KT 08/04 A3002 RMK A01 T00830041  RH  075%=      5-min Rain = 0
KCH1 130657Z 10002KT 08/04 A3002 RMK A01 T00820042  RH  076%=      5-min Rain = 0
KCH1 130658Z 09002KT 08/04 A3002 RMK A01 T00810041  RH  076%=      5-min Rain = 0
KCH1 130659Z 08002KT 08/04 A3002 RMK A01 T00820039  RH  074%=      5-min Rain = 0
KCH1 130700Z 08001KT 08/04 A3002 RMK A01 T00840038  RH  073%=      5-min Rain = 0
KCH1 130701Z 08001KT 09/04 A3002 RMK A01 T00860037  RH  072%=      5-min Rain = 0
KCH1 130702Z 07001KT 09/04 A3002 RMK A01 T00870038  RH  071%=      5-min Rain = 0
KCH1 130703Z 07001KT 09/04 A3002 RMK A01 T00870038  RH  071%=      5-min Rain = 0
KCH1 130704Z 09000KT 09/04 A3002 RMK A01 T00880038  RH  071%=      5-min Rain = 0
KCH1 130705Z 11001KT 09/04 A3002 RMK A01 T00880037  RH  070%=      5-min Rain = 0
KCH1 130706Z 13000KT 09/04 A3002 RMK A01 T00890036  RH  070%=      5-min Rain = 0
KCH1 130707Z 00000KT 09/04 A3002 RMK A01 T00900036  RH  069%=      5-min Rain = 0
KCH1 130708Z 12000KT 09/04 A3002 RMK A01 T00910036  RH  069%=      5-min Rain = 0
KCH1 130709Z 13000KT 09/04 A3002 RMK A01 T00920035  RH  068%=      5-min Rain = 0
KCH1 130710Z 00000KT 09/04 A3002 RMK A01 T00930035  RH  067%=      5-min Rain = 0
KCH1 130711Z 17000KT 09/04 A3002 RMK A01 T00930036  RH  067%=      5-min Rain = 0
KCH1 130712Z 16000KT 09/04 A3002 RMK A01 T00930035  RH  067%=      5-min Rain = 0
KCH1 130713Z 17000KT 09/04 A3002 RMK A01 T00940035  RH  067%=      5-min Rain = 0
KCH1 130714Z 00000KT 09/04 A3002 RMK A01 T00940035  RH  067%=      5-min Rain = 0
KCH1 130715Z 00000KT 10/04 A3002 RMK A01 T00950035  RH  066%=      5-min Rain = 0
KCH1 130716Z 00000KT 10/04 A3002 RMK A01 T00960035  RH  066%=      5-min Rain = 0
KCH1 130717Z 00000KT 10/04 A3002 RMK A01 T00960035  RH  066%=      5-min Rain = 0
KCH1 130718Z 00000KT 10/04 A3002 RMK A01 T00960035  RH  066%=      5-min Rain = 0
KCH1 130719Z 00000KT 10/04 A3002 RMK A01 T00960036  RH  066%=      5-min Rain = 0
KCH1 130720Z 00000KT 10/04 A3002 RMK A01 T00960036  RH  066%=      5-min Rain = 0
KCH1 130721Z 00000KT 10/04 A3002 RMK A01 T00950037  RH  067%=      5-min Rain = 0
KCH1 130722Z 00000KT 10/04 A3002 RMK A01 T00950036  RH  067%=      5-min Rain = 0
KCH1 130723Z 00000KT 09/04 A3002 RMK A01 T00940036  RH  067%=      5-min Rain = 0
KCH1 130724Z 00000KT 09/04 A3002 RMK A01 T00940035  RH  067%=      5-min Rain = 0
KCH1 130725Z 00000KT 10/04 A3002 RMK A01 T00950035  RH  066%=      5-min Rain = 0
KCH1 130726Z 00000KT 10/04 A3002 RMK A01 T00950035  RH  066%=      5-min Rain = 0
KCH1 130727Z 00000KT 10/04 A3002 RMK A01 T00960035  RH  066%=      5-min Rain = 0
KCH1 130728Z 00000KT 10/04 A3002 RMK A01 T00960035  RH  066%=      5-min Rain = 0
KCH1 130729Z 21000KT 10/04 A3002 RMK A01 T00970035  RH  065%=      5-min Rain = 0
KCH1 130730Z 21000KT 10/04 A3002 RMK A01 T00970036  RH  066%=      5-min Rain = 0
KCH1 130731Z 00000KT 10/04 A3002 RMK A01 T00970037  RH  066%=      5-min Rain = 0
KCH1 130732Z 23000KT 10/04 A3002 RMK A01 T00970037  RH  066%=      5-min Rain = 0
KCH1 130733Z 19000KT 10/04 A3002 RMK A01 T00970036  RH  066%=      5-min Rain = 0
KCH1 130734Z 19001KT 10/04 A3002 RMK A01 T00960036  RH  066%=      5-min Rain = 0
KCH1 130735Z 00000KT 10/04 A3002 RMK A01 T00970035  RH  065%=      5-min Rain = 0
KCH1 130736Z 19000KT 10/04 A3002 RMK A01 T00970035  RH  065%=      5-min Rain = 0
KCH1 130737Z 18001KT 10/03 A3002 RMK A01 T00980034  RH  065%=      5-min Rain = 0
KCH1 130738Z 18002KT 10/04 A3002 RMK A01 T00980035  RH  065%=      5-min Rain = 0
KCH1 130739Z 18002KT 10/04 A3002 RMK A01 T00980035  RH  064%=      5-min Rain = 0
KCH1 130740Z 18002KT 10/03 A3002 RMK A01 T00990034  RH  064%=      5-min Rain = 0
KCH1 130741Z 17002KT 10/04 A3002 RMK A01 T01000035  RH  064%=      5-min Rain = 0
KCH1 130742Z 17002KT 10/03 A3002 RMK A01 T01010034  RH  063%=      5-min Rain = 0
KCH1 130743Z 17002KT 10/04 A3002 RMK A01 T01020035  RH  063%=      5-min Rain = 0
KCH1 130744Z 17002KT 10/04 A3002 RMK A01 T01010035  RH  063%=      5-min Rain = 0
KCH1 130745Z 17002KT 10/04 A3002 RMK A01 T01010035  RH  063%=      5-min Rain = 0
KCH1 130746Z 17002KT 10/03 A3002 RMK A01 T01010034  RH  063%=      5-min Rain = 0
KCH1 130747Z 17002KT 10/04 A3002 RMK A01 T01010039  RH  065%=      5-min Rain = 0
KCH1 130748Z 17002KT 10/04 A3002 RMK A01 T00960042  RH  069%=      5-min Rain = 0
KCH1 130749Z 18002KT 09/04 A3002 RMK A01 T00900040  RH  071%=      5-min Rain = 0
KCH1 130750Z 18002KT 09/04 A3002 RMK A01 T00860040  RH  073%=      5-min Rain = 0
KCH1 130751Z 18002KT 08/04 A3002 RMK A01 T00840041  RH  074%=      5-min Rain = 0
KCH1 130752Z 18001KT 08/04 A3002 RMK A01 T00820040  RH  074%=      5-min Rain = 0
KCH1 130753Z 18001KT 08/04 A3002 RMK A01 T00820039  RH  075%=      5-min Rain = 0
KCH1 130754Z 17000KT 08/04 A3002 RMK A01 T00810039  RH  075%=      5-min Rain = 0
KCH1 130755Z 17000KT 08/04 A3002 RMK A01 T00810040  RH  075%=      5-min Rain = 0
KCH1 130756Z 17000KT 08/04 A3002 RMK A01 T00810038  RH  074%=      5-min Rain = 0
KCH1 130757Z 17000KT 08/04 A3002 RMK A01 T00810038  RH  074%=      5-min Rain = 0
KCH1 130758Z 17000KT 08/04 A3002 RMK A01 T00820036  RH  073%=      5-min Rain = 0
KCH1 130759Z 18000KT 08/04 A3001 RMK A01 T00820036  RH  073%=      5-min Rain = 0
KCH1 130800Z 18001KT 08/04 A3001 RMK A01 T00830037  RH  073%=      5-min Rain = 0
KCH1 130801Z 18001KT 08/04 A3001 RMK A01 T00830035  RH  072%=      5-min Rain = 0
KCH1 130802Z 19001KT 08/03 A3001 RMK A01 T00830034  RH  072%=      5-min Rain = 0
KCH1 130803Z 19001KT 08/03 A3001 RMK A01 T00830034  RH  071%=      5-min Rain = 0
KCH1 130804Z 19002KT 08/03 A3001 RMK A01 T00830034  RH  071%=      5-min Rain = 0
KCH1 130805Z 19002KT 08/03 A3001 RMK A01 T00830034  RH  071%=      5-min Rain = 0
KCH1 130806Z 20003KT 08/04 A3001 RMK A01 T00840035  RH  071%=      5-min Rain = 0
KCH1 130807Z 19003KT 09/04 A3001 RMK A01 T00850036  RH  071%=      5-min Rain = 0
KCH1 130808Z 19004KT 09/04 A3001 RMK A01 T00870037  RH  071%=      5-min Rain = 0
KCH1 130809Z 19004KT 09/04 A3001 RMK A01 T00890037  RH  070%=      5-min Rain = 0
KCH1 130810Z 19004KT 09/04 A3001 RMK A01 T00900038  RH  070%=      5-min Rain = 0
KCH1 130811Z 19004KT 09/04 A3001 RMK A01 T00910038  RH  070%=      5-min Rain = 0
KCH1 130812Z 19003KT 09/04 A3001 RMK A01 T00910039  RH  070%=      5-min Rain = 0
KCH1 130813Z 18003KT 09/04 A3001 RMK A01 T00910040  RH  070%=      5-min Rain = 0
KCH1 130814Z 18003KT 09/04 A3001 RMK A01 T00910040  RH  070%=      5-min Rain = 0
KCH1 130815Z 18003KT 09/04 A3001 RMK A01 T00910039  RH  070%=      5-min Rain = 0
KCH1 130816Z 18003KT 09/04 A3001 RMK A01 T00910039  RH  070%=      5-min Rain = 0
KCH1 130817Z 18002KT 09/04 A3001 RMK A01 T00910039  RH  070%=      5-min Rain = 0
KCH1 130818Z 18003KT 09/04 A3001 RMK A01 T00910040  RH  070%=      5-min Rain = 0
KCH1 130819Z 18003KT 09/04 A3001 RMK A01 T00900040  RH  071%=      5-min Rain = 0
KCH1 130820Z 17003KT 09/04 A3001 RMK A01 T00890040  RH  071%=      5-min Rain = 0
KCH1 130821Z 17003KT 09/04 A3001 RMK A01 T00880037  RH  071%=      5-min Rain = 0
KCH1 130822Z 17003KT 09/04 A3001 RMK A01 T00870037  RH  070%=      5-min Rain = 0
KCH1 130823Z 17003KT 09/04 A3001 RMK A01 T00880037  RH  070%=      5-min Rain = 0
KCH1 130824Z 16003KT 09/04 A3001 RMK A01 T00880037  RH  070%=      5-min Rain = 0
KCH1 130825Z 16003KT 09/04 A3001 RMK A01 T00880037  RH  071%=      5-min Rain = 0
KCH1 130826Z 16003KT 09/04 A3001 RMK A01 T00880037  RH  070%=      5-min Rain = 0
KCH1 130827Z 17002KT 09/04 A3001 RMK A01 T00880037  RH  070%=      5-min Rain = 0
KCH1 130828Z 17002KT 09/04 A3001 RMK A01 T00880035  RH  070%=      5-min Rain = 0
KCH1 130829Z 17003KT 09/04 A3001 RMK A01 T00880035  RH  069%=      5-min Rain = 0
KCH1 130830Z 16003KT 09/04 A3001 RMK A01 T00890035  RH  069%=      5-min Rain = 0
KCH1 130831Z 17004KT 09/04 A3001 RMK A01 T00890036  RH  069%=      5-min Rain = 0
KCH1 130832Z 17004KT 09/04 A30 RMK A01 T00890037  RH  070%=      5-min Rain = 0
KCH1 130833Z 17004KT 09/04 A30 RMK A01 T00870039  RH  072%=      5-min Rain = 0
KCH1 130834Z 18004KT 09/04 A30 RMK A01 T00860039  RH  072%=      5-min Rain = 0
KCH1 130835Z 18004KT 09/04 A30 RMK A01 T00850037  RH  072%=      5-min Rain = 0
KCH1 130836Z 17004KT 09/04 A30 RMK A01 T00850035  RH  071%=      5-min Rain = 0
KCH1 130837Z 17003KT 09/04 A30 RMK A01 T00850036  RH  071%=      5-min Rain = 0
KCH1 130838Z 17003KT 09/04 A30 RMK A01 T00850037  RH  072%=      5-min Rain = 0
KCH1 130839Z 16003KT 08/04 A30 RMK A01 T00840038  RH  073%=      5-min Rain = 0
KCH1 130840Z 14002KT 08/04 A30 RMK A01 T00800040  RH  076%=      5-min Rain = 0
KCH1 130841Z 13002KT 08/04 A30 RMK A01 T00770040  RH  078%=      5-min Rain = 0
KCH1 130842Z 13002KT 07/04 A30 RMK A01 T00740041  RH  080%=      5-min Rain = 0
KCH1 130843Z 11001KT 07/04 A30 RMK A01 T00720039  RH  080%=      5-min Rain = 0
KCH1 130844Z 09001KT 07/04 A30 RMK A01 T00720039  RH  079%=      5-min Rain = 0
KCH1 130845Z 10001KT 07/04 A30 RMK A01 T00720037  RH  078%=      5-min Rain = 0
KCH1 130846Z 07001KT 07/04 A30 RMK A01 T00740038  RH  078%=      5-min Rain = 0
KCH1 130847Z 09001KT 07/04 A30 RMK A01 T00740037  RH  077%=      5-min Rain = 0
KCH1 130848Z 08001KT 08/04 A30 RMK A01 T00760037  RH  076%=      5-min Rain = 0
KCH1 130849Z 08002KT 08/04 A30 RMK A01 T00770036  RH  075%=      5-min Rain = 0
KCH1 130850Z 09002KT 08/04 A30 RMK A01 T00780036  RH  075%=      5-min Rain = 0
KCH1 130851Z 08002KT 08/04 A30 RMK A01 T00780036  RH  075%=      5-min Rain = 0
KCH1 130852Z 10002KT 08/04 A30 RMK A01 T00800036  RH  074%=      5-min Rain = 0
KCH1 130853Z 11002KT 08/04 A30 RMK A01 T00820037  RH  073%=      5-min Rain = 0
KCH1 130854Z 10002KT 08/04 A30 RMK A01 T00820037  RH  073%=      5-min Rain = 0
KCH1 130855Z 11002KT 08/04 A30 RMK A01 T00820036  RH  073%=      5-min Rain = 0
KCH1 130856Z 12002KT 08/04 A30 RMK A01 T00820037  RH  073%=      5-min Rain = 0
KCH1 130857Z 13002KT 08/04 A30 RMK A01 T00820036  RH  073%=      5-min Rain = 0
KCH1 130858Z 13002KT 08/04 A30 RMK A01 T00820035  RH  072%=      5-min Rain = 0
KCH1 130859Z 13002KT 08/04 A30 RMK A01 T00830035  RH  072%=      5-min Rain = 0
KCH1 130900Z 14002KT 08/03 A30 RMK A01 T00840034  RH  071%=      5-min Rain = 0
KCH1 130901Z 14002KT 09/04 A30 RMK A01 T00850035  RH  071%=      5-min Rain = 0
KCH1 130902Z 15002KT 09/04 A30 RMK A01 T00850035  RH  070%=      5-min Rain = 0
KCH1 130903Z 15003KT 09/04 A30 RMK A01 T00850035  RH  071%=      5-min Rain = 0
KCH1 130904Z 16003KT 09/04 A30 RMK A01 T00850035  RH  070%=      5-min Rain = 0
KCH1 130905Z 16003KT 09/03 A30 RMK A01 T00860034  RH  070%=      5-min Rain = 0
KCH1 130906Z 16003KT 09/03 A30 RMK A01 T00860034  RH  070%=      5-min Rain = 0
KCH1 130907Z 17003KT 09/03 A30 RMK A01 T00860034  RH  069%=      5-min Rain = 0
KCH1 130908Z 17004KT 09/03 A30 RMK A01 T00870034  RH  069%=      5-min Rain = 0
KCH1 130909Z 17004KT 09/03 A30 RMK A01 T00870033  RH  069%=      5-min Rain = 0
KCH1 130910Z 18004KT 09/03 A30 RMK A01 T00880033  RH  069%=      5-min Rain = 0
KCH1 130911Z 18004KT 09/03 A30 RMK A01 T00880033  RH  068%=      5-min Rain = 0
KCH1 130912Z 18004KT 09/03 A30 RMK A01 T00890033  RH  068%=      5-min Rain = 0
KCH1 130913Z 18004KT 09/03 A30 RMK A01 T00900033  RH  068%=      5-min Rain = 0
KCH1 130914Z 18004KT 09/03 A30 RMK A01 T00900033  RH  068%=      5-min Rain = 0
KCH1 130915Z 18005KT 09/03 A30 RMK A01 T00900033  RH  067%=      5-min Rain = 0
KCH1 130916Z 18005KT 09/03 A30 RMK A01 T00900033  RH  067%=      5-min Rain = 0
KCH1 130917Z 18005KT 09/03 A30 RMK A01 T00900033  RH  068%=      5-min Rain = 0
KCH1 130918Z 18005KT 09/03 A30 RMK A01 T00890034  RH  068%=      5-min Rain = 0
KCH1 130919Z 18004KT 09/03 A30 RMK A01 T00890034  RH  068%=      5-min Rain = 0
KCH1 130920Z 18004KT 09/03 A30 RMK A01 T00890034  RH  068%=      5-min Rain = 0
KCH1 130921Z 18004KT 09/03 A30 RMK A01 T00890034  RH  069%=      5-min Rain = 0
KCH1 130922Z 18004KT 09/03 A30 RMK A01 T00880034  RH  069%=      5-min Rain = 0
KCH1 130923Z 18003KT 09/03 A30 RMK A01 T00880034  RH  069%=      5-min Rain = 0
KCH1 130924Z 19003KT 09/03 A30 RMK A01 T00870034  RH  069%=      5-min Rain = 0
KCH1 130925Z 18003KT 09/04 A30 RMK A01 T00880035  RH  069%=      5-min Rain = 0
KCH1 130926Z 18003KT 09/04 A2999 RMK A01 T00870035  RH  070%=      5-min Rain = 0
KCH1 130927Z 18003KT 09/04 A2999 RMK A01 T00870035  RH  070%=      5-min Rain = 0
KCH1 130928Z 18003KT 09/04 A2999 RMK A01 T00860035  RH  070%=      5-min Rain = 0
KCH1 130929Z 18003KT 09/04 A2999 RMK A01 T00860035  RH  071%=      5-min Rain = 0
KCH1 130930Z 17002KT 09/04 A2999 RMK A01 T00850037  RH  072%=      5-min Rain = 0
KCH1 130931Z 16002KT 08/04 A2999 RMK A01 T00830037  RH  073%=      5-min Rain = 0
KCH1 130932Z 14002KT 08/04 A2999 RMK A01 T00810037  RH  074%=      5-min Rain = 0
KCH1 130933Z 13001KT 08/04 A2999 RMK A01 T00790037  RH  075%=      5-min Rain = 0
KCH1 130934Z 11002KT 08/04 A2999 RMK A01 T00780037  RH  075%=      5-min Rain = 0
KCH1 130935Z 09002KT 08/04 A2999 RMK A01 T00760037  RH  076%=      5-min Rain = 0
KCH1 130936Z 09002KT 08/04 A2999 RMK A01 T00760037  RH  077%=      5-min Rain = 0
KCH1 130937Z 08002KT 08/04 A2999 RMK A01 T00750037  RH  077%=      5-min Rain = 0
KCH1 130938Z 06002KT 08/04 A2999 RMK A01 T00750036  RH  076%=      5-min Rain = 0
KCH1 130939Z 06002KT 08/04 A2999 RMK A01 T00760035  RH  075%=      5-min Rain = 0
KCH1 130940Z 06003KT 08/03 A2999 RMK A01 T00760034  RH  075%=      5-min Rain = 0
KCH1 130941Z 04002KT 08/04 A2999 RMK A01 T00760035  RH  075%=      5-min Rain = 0
KCH1 130942Z 05003KT 08/03 A2999 RMK A01 T00760034  RH  075%=      5-min Rain = 0
KCH1 130943Z 07002KT 08/03 A2999 RMK A01 T00760034  RH  075%=      5-min Rain = 0
KCH1 130944Z 09001KT 08/03 A2999 RMK A01 T00780034  RH  074%=      5-min Rain = 0
KCH1 130945Z 06002KT 08/04 A2999 RMK A01 T00780035  RH  074%=      5-min Rain = 0
KCH1 130946Z 06002KT 08/04 A2999 RMK A01 T00780035  RH  074%=      5-min Rain = 0
KCH1 130947Z 08001KT 08/04 A2999 RMK A01 T00780035  RH  074%=      5-min Rain = 0
KCH1 130948Z 07002KT 08/04 A2999 RMK A01 T00780036  RH  075%=      5-min Rain = 0
KCH1 130949Z 07002KT 08/03 A2999 RMK A01 T00780034  RH  074%=      5-min Rain = 0
KCH1 130950Z 08002KT 08/03 A2999 RMK A01 T00790034  RH  073%=      5-min Rain = 0
KCH1 130951Z 08002KT 08/03 A2999 RMK A01 T00790034  RH  073%=      5-min Rain = 0
KCH1 130952Z 08002KT 08/03 A2999 RMK A01 T00800033  RH  072%=      5-min Rain = 0
KCH1 130953Z 10002KT 08/03 A2999 RMK A01 T00810034  RH  072%=      5-min Rain = 0
KCH1 130954Z 11002KT 08/03 A2999 RMK A01 T00810033  RH  072%=      5-min Rain = 0
KCH1 130955Z 11002KT 08/03 A2999 RMK A01 T00820032  RH  071%=      5-min Rain = 0
KCH1 130956Z 12002KT 08/03 A2999 RMK A01 T00830032  RH  070%=      5-min Rain = 0
KCH1 130957Z 14002KT 08/03 A2999 RMK A01 T00840032  RH  070%=      5-min Rain = 0
KCH1 130958Z 14002KT 08/03 A2999 RMK A01 T00840032  RH  069%=      5-min Rain = 0
KCH1 130959Z 15002KT 09/03 A2999 RMK A01 T00850032  RH  069%=      5-min Rain = 0
KCH1 131000Z 15003KT 09/03 A2999 RMK A01 T00850032  RH  070%=      5-min Rain = 0
KCH1 131001Z 16003KT 08/03 A2999 RMK A01 T00840033  RH  070%=      5-min Rain = 0
KCH1 131002Z 17004KT 08/03 A2999 RMK A01 T00840032  RH  070%=      5-min Rain = 0
KCH1 131003Z 16004KT 08/03 A2999 RMK A01 T00840032  RH  070%=      5-min Rain = 0
KCH1 131004Z 16004KT 08/03 A2999 RMK A01 T00840032  RH  070%=      5-min Rain = 0
KCH1 131005Z 17005KT 08/03 A2999 RMK A01 T00840032  RH  070%=      5-min Rain = 0
KCH1 131006Z 17006KT 08/03 A2999 RMK A01 T00840032  RH  070%=      5-min Rain = 0
KCH1 131007Z 17006KT 08/03 A2999 RMK A01 T00840032  RH  070%=      5-min Rain = 0
KCH1 131008Z 17006KT 08/03 A2999 RMK A01 T00840033  RH  070%=      5-min Rain = 0
KCH1 131009Z 17006KT 08/03 A2999 RMK A01 T00840033  RH  070%=      5-min Rain = 0
KCH1 131010Z 16005KT 09/03 A2999 RMK A01 T00850032  RH  070%=      5-min Rain = 0
KCH1 131011Z 17004KT 09/03 A2999 RMK A01 T00860033  RH  069%=      5-min Rain = 0
KCH1 131012Z 17005KT 09/03 A2999 RMK A01 T00860033  RH  069%=      5-min Rain = 0
KCH1 131013Z 17004KT 09/03 A2999 RMK A01 T00860032  RH  069%=      5-min Rain = 0
KCH1 131014Z 16004KT 09/03 A2999 RMK A01 T00860032  RH  069%=      5-min Rain = 0
KCH1 131015Z 16004KT 09/03 A2999 RMK A01 T00870031  RH  068%=      5-min Rain = 0
KCH1 131016Z 15003KT 09/03 A2999 RMK A01 T00870032  RH  068%=      5-min Rain = 0
KCH1 131017Z 16003KT 09/03 A2999 RMK A01 T00870032  RH  068%=      5-min Rain = 0
KCH1 131018Z 14003KT 09/03 A2999 RMK A01 T00870033  RH  069%=      5-min Rain = 0
KCH1 131019Z 15003KT 09/03 A2999 RMK A01 T00850034  RH  070%=      5-min Rain = 0
KCH1 131020Z 14002KT 08/03 A2999 RMK A01 T00840033  RH  070%=      5-min Rain = 0
KCH1 131021Z 15002KT 08/03 A2999 RMK A01 T00830033  RH  071%=      5-min Rain = 0
KCH1 131022Z 14002KT 08/03 A2999 RMK A01 T00820033  RH  071%=      5-min Rain = 0
KCH1 131023Z 14002KT 08/03 A2999 RMK A01 T00810033  RH  072%=      5-min Rain = 0
KCH1 131024Z 12002KT 08/03 A2999 RMK A01 T00810032  RH  071%=      5-min Rain = 0
KCH1 131025Z 14002KT 08/03 A2999 RMK A01 T00810032  RH  071%=      5-min Rain = 0
KCH1 131026Z 14001KT 08/03 A2999 RMK A01 T00810033  RH  071%=      5-min Rain = 0
KCH1 131027Z 15002KT 08/03 A2999 RMK A01 T00810033  RH  072%=      5-min Rain = 0
KCH1 131028Z 15002KT 08/03 A2999 RMK A01 T00810033  RH  072%=      5-min Rain = 0
KCH1 131029Z 16003KT 08/03 A2999 RMK A01 T00800033  RH  072%=      5-min Rain = 0
KCH1 131030Z 15003KT 08/03 A2999 RMK A01 T00800032  RH  072%=      5-min Rain = 0
KCH1 131031Z 15003KT 08/03 A2999 RMK A01 T00800032  RH  072%=      5-min Rain = 0
KCH1 131032Z 15003KT 08/03 A2999 RMK A01 T00800033  RH  072%=      5-min Rain = 0
KCH1 131033Z 15003KT 08/03 A2999 RMK A01 T00800033  RH  073%=      5-min Rain = 0
KCH1 131034Z 15002KT 08/03 A2999 RMK A01 T00790034  RH  073%=      5-min Rain = 0
KCH1 131035Z 15002KT 08/03 A2999 RMK A01 T00790034  RH  073%=      5-min Rain = 0
KCH1 131036Z 16002KT 08/03 A2999 RMK A01 T00780034  RH  074%=      5-min Rain = 0
KCH1 131037Z 15002KT 08/03 A30 RMK A01 T00770033  RH  074%=      5-min Rain = 0
KCH1 131038Z 15002KT 08/03 A30 RMK A01 T00770033  RH  074%=      5-min Rain = 0
KCH1 131039Z 15001KT 08/03 A30 RMK A01 T00770033  RH  073%=      5-min Rain = 0
KCH1 131040Z 14002KT 08/03 A30 RMK A01 T00770033  RH  074%=      5-min Rain = 0
KCH1 131041Z 13001KT 08/03 A30 RMK A01 T00770033  RH  074%=      5-min Rain = 0
KCH1 131042Z 12002KT 08/03 A30 RMK A01 T00770033  RH  074%=      5-min Rain = 0
KCH1 131043Z 10002KT 08/03 A30 RMK A01 T00770033  RH  074%=      5-min Rain = 0
KCH1 131044Z 08002KT 08/03 A30 RMK A01 T00770033  RH  074%=      5-min Rain = 0
KCH1 131045Z 08002KT 08/03 A30 RMK A01 T00770033  RH  074%=      5-min Rain = 0
KCH1 131046Z 08002KT 08/03 A30 RMK A01 T00770031  RH  073%=      5-min Rain = 0
KCH1 131047Z 09002KT 08/03 A30 RMK A01 T00780031  RH  072%=      5-min Rain = 0
KCH1 131048Z 10002KT 08/03 A2999 RMK A01 T00780031  RH  072%=      5-min Rain = 0
KCH1 131049Z 09002KT 08/03 A2999 RMK A01 T00780031  RH  072%=      5-min Rain = 0
KCH1 131050Z 11002KT 08/03 A2999 RMK A01 T00780031  RH  072%=      5-min Rain = 0
KCH1 131051Z 08002KT 08/03 A30 RMK A01 T00780032  RH  073%=      5-min Rain = 0
KCH1 131052Z 09003KT 08/03 A30 RMK A01 T00770031  RH  073%=      5-min Rain = 0
KCH1 131053Z 09002KT 08/03 A30 RMK A01 T00770031  RH  073%=      5-min Rain = 0
KCH1 131054Z 09002KT 08/03 A30 RMK A01 T00760032  RH  073%=      5-min Rain = 0
KCH1 131055Z 09003KT 08/03 A30 RMK A01 T00750032  RH  074%=      5-min Rain = 0
KCH1 131056Z 08003KT 08/03 A30 RMK A01 T00750032  RH  074%=      5-min Rain = 0
KCH1 131057Z 08003KT 08/03 A30 RMK A01 T00750031  RH  073%=      5-min Rain = 0
KCH1 131058Z 08003KT 08/03 A30 RMK A01 T00760031  RH  073%=      5-min Rain = 0
KCH1 131059Z 07004KT 08/03 A30 RMK A01 T00760032  RH  074%=      5-min Rain = 0
KCH1 131100Z 07003KT 08/03 A30 RMK A01 T00750032  RH  074%=      5-min Rain = 0
KCH1 131101Z 06003KT 08/03 A30 RMK A01 T00750032  RH  074%=      5-min Rain = 0
KCH1 131102Z 06004KT 08/03 A30 RMK A01 T00750032  RH  074%=      5-min Rain = 0
KCH1 131103Z 07004KT 07/03 A30 RMK A01 T00740031  RH  074%=      5-min Rain = 0
KCH1 131104Z 07003KT 07/03 A30 RMK A01 T00740031  RH  074%=      5-min Rain = 0
KCH1 131105Z 08003KT 07/03 A30 RMK A01 T00740031  RH  074%=      5-min Rain = 0
KCH1 131106Z 08004KT 08/03 A30 RMK A01 T00750031  RH  074%=      5-min Rain = 0
KCH1 131107Z 08003KT 08/03 A30 RMK A01 T00760031  RH  073%=      5-min Rain = 0
KCH1 131108Z 08004KT 08/03 A30 RMK A01 T00770031  RH  073%=      5-min Rain = 0
KCH1 131109Z 07003KT 08/03 A30 RMK A01 T00770031  RH  073%=      5-min Rain = 0
KCH1 131110Z 07003KT 08/03 A30 RMK A01 T00770031  RH  073%=      5-min Rain = 0
KCH1 131111Z 08003KT 08/03 A30 RMK A01 T00770032  RH  073%=      5-min Rain = 0
KCH1 131112Z 09003KT 08/03 A30 RMK A01 T00760032  RH  073%=      5-min Rain = 0
KCH1 131113Z 10003KT 08/03 A30 RMK A01 T00760032  RH  074%=      5-min Rain = 0
KCH1 131114Z 10003KT 08/03 A30 RMK A01 T00750031  RH  073%=      5-min Rain = 0
KCH1 131115Z 10004KT 08/03 A30 RMK A01 T00760031  RH  073%=      5-min Rain = 0
KCH1 131116Z 10004KT 08/03 A30 RMK A01 T00760031  RH  073%=      5-min Rain = 0
KCH1 131117Z 10004KT 08/03 A30 RMK A01 T00760031  RH  073%=      5-min Rain = 0
KCH1 131118Z 10004KT 08/03 A30 RMK A01 T00760031  RH  073%=      5-min Rain = 0
KCH1 131119Z 10004KT 08/03 A30 RMK A01 T00760031  RH  073%=      5-min Rain = 0
KCH1 131120Z 10004KT 08/03 A30 RMK A01 T00760031  RH  073%=      5-min Rain = 0
KCH1 131121Z 10004KT 08/03 A30 RMK A01 T00760031  RH  073%=      5-min Rain = 0
KCH1 131122Z 10004KT 08/03 A30 RMK A01 T00770030  RH  072%=      5-min Rain = 0
KCH1 131123Z 10004KT 08/03 A30 RMK A01 T00770030  RH  072%=      5-min Rain = 0
KCH1 131124Z 09003KT 08/03 A30 RMK A01 T00770031  RH  072%=      5-min Rain = 0
KCH1 131125Z 09003KT 08/03 A30 RMK A01 T00770030  RH  072%=      5-min Rain = 0
KCH1 131126Z 08003KT 08/03 A30 RMK A01 T00780030  RH  072%=      5-min Rain = 0
KCH1 131127Z 06002KT 08/03 A30 RMK A01 T00780030  RH  071%=      5-min Rain = 0
KCH1 131128Z 06002KT 08/03 A30 RMK A01 T00790030  RH  071%=      5-min Rain = 0
KCH1 131129Z 09002KT 08/03 A30 RMK A01 T00800029  RH  070%=      5-min Rain = 0
KCH1 131130Z 09003KT 08/03 A30 RMK A01 T00810029  RH  069%=      5-min Rain = 0
KCH1 131131Z 08003KT 08/03 A30 RMK A01 T00830029  RH  069%=      5-min Rain = 0
KCH1 131132Z 09003KT 08/03 A30 RMK A01 T00840029  RH  068%=      5-min Rain = 0
KCH1 131133Z 09002KT 08/03 A3001 RMK A01 T00840029  RH  068%=      5-min Rain = 0
KCH1 131134Z 10003KT 08/03 A3001 RMK A01 T00840029  RH  068%=      5-min Rain = 0
KCH1 131135Z 10003KT 08/03 A3001 RMK A01 T00840029  RH  068%=      5-min Rain = 0
KCH1 131136Z 08003KT 08/03 A3001 RMK A01 T00830029  RH  069%=      5-min Rain = 0
KCH1 131137Z 08002KT 08/03 A3001 RMK A01 T00830028  RH  068%=      5-min Rain = 0
KCH1 131138Z 08002KT 08/03 A3001 RMK A01 T00840028  RH  068%=      5-min Rain = 0
KCH1 131139Z 08002KT 08/03 A3001 RMK A01 T00840028  RH  068%=      5-min Rain = 0
KCH1 131140Z 07002KT 08/03 A3001 RMK A01 T00840027  RH  068%=      5-min Rain = 0
KCH1 131141Z 06002KT 09/03 A3001 RMK A01 T00850027  RH  067%=      5-min Rain = 0
KCH1 131142Z 07002KT 09/03 A3001 RMK A01 T00850027  RH  067%=      5-min Rain = 0
KCH1 131143Z 08002KT 09/03 A3001 RMK A01 T00850027  RH  067%=      5-min Rain = 0
KCH1 131144Z 08002KT 09/03 A3001 RMK A01 T00850026  RH  066%=      5-min Rain = 0
KCH1 131145Z 10002KT 09/03 A3001 RMK A01 T00860026  RH  066%=      5-min Rain = 0
KCH1 131146Z 12002KT 09/03 A3001 RMK A01 T00860027  RH  066%=      5-min Rain = 0
KCH1 131147Z 12002KT 09/03 A3001 RMK A01 T00860027  RH  066%=      5-min Rain = 0
KCH1 131148Z 12002KT 09/03 A3001 RMK A01 T00860026  RH  066%=      5-min Rain = 0
KCH1 131149Z 13003KT 09/03 A3001 RMK A01 T00860026  RH  066%=      5-min Rain = 0
KCH1 131150Z 13002KT 09/03 A3001 RMK A01 T00860026  RH  066%=      5-min Rain = 0
KCH1 131151Z 13002KT 09/03 A3001 RMK A01 T00860026  RH  066%=      5-min Rain = 0
KCH1 131152Z 12002KT 09/03 A3001 RMK A01 T00870027  RH  066%=      5-min Rain = 0
KCH1 131153Z 13002KT 09/03 A3001 RMK A01 T00860026  RH  066%=      5-min Rain = 0
KCH1 131154Z 14002KT 09/03 A3001 RMK A01 T00860026  RH  066%=      5-min Rain = 0
KCH1 131155Z 13002KT 09/03 A3001 RMK A01 T00870026  RH  065%=      5-min Rain = 0
KCH1 131156Z 13002KT 09/03 A3001 RMK A01 T00870026  RH  065%=      5-min Rain = 0
KCH1 131157Z 14002KT 09/03 A3001 RMK A01 T00870026  RH  065%=      5-min Rain = 0
KCH1 131158Z 14002KT 09/03 A3001 RMK A01 T00880025  RH  065%=      5-min Rain = 0
KCH1 131159Z 14002KT 09/03 A3001 RMK A01 T00880025  RH  065%=      5-min Rain = 0
KCH1 131200Z 14002KT 09/03 A3001 RMK A01 T00890025  RH  064%=      5-min Rain = 0
KCH1 131201Z 13002KT 09/03 A3001 RMK A01 T00890025  RH  064%=      5-min Rain = 0
KCH1 131202Z 13002KT 09/03 A3001 RMK A01 T00890025  RH  064%=      5-min Rain = 0
KCH1 131203Z 11002KT 09/03 A3001 RMK A01 T00900026  RH  064%=      5-min Rain = 0
KCH1 131204Z 12002KT 09/03 A3001 RMK A01 T00890026  RH  065%=      5-min Rain = 0
KCH1 131205Z 12002KT 09/03 A3001 RMK A01 T00880026  RH  065%=      5-min Rain = 0
KCH1 131206Z 12002KT 09/03 A3001 RMK A01 T00870026  RH  066%=      5-min Rain = 0
KCH1 131207Z 13002KT 09/03 A3001 RMK A01 T00860026  RH  066%=      5-min Rain = 0
KCH1 131208Z 12002KT 09/03 A3001 RMK A01 T00850025  RH  066%=      5-min Rain = 0
KCH1 131209Z 12002KT 08/03 A3001 RMK A01 T00840027  RH  067%=      5-min Rain = 0
KCH1 131210Z 12002KT 08/03 A3001 RMK A01 T00820027  RH  068%=      5-min Rain = 0
KCH1 131211Z 12002KT 08/03 A3001 RMK A01 T00800027  RH  069%=      5-min Rain = 0
KCH1 131212Z 10002KT 08/03 A3001 RMK A01 T00790028  RH  070%=      5-min Rain = 0
KCH1 131213Z 10002KT 08/03 A3001 RMK A01 T00770028  RH  071%=      5-min Rain = 0
KCH1 131214Z 09002KT 08/03 A3001 RMK A01 T00750027  RH  072%=      5-min Rain = 0
KCH1 131215Z 08002KT 08/03 A3001 RMK A01 T00750027  RH  072%=      5-min Rain = 0
KCH1 131216Z 09002KT 08/03 A3001 RMK A01 T00750027  RH  072%=      5-min Rain = 0
KCH1 131217Z 09002KT 07/03 A3001 RMK A01 T00740027  RH  072%=      5-min Rain = 0
KCH1 131218Z 08002KT 07/03 A3001 RMK A01 T00740027  RH  072%=      5-min Rain = 0
KCH1 131219Z 06003KT 07/03 A3001 RMK A01 T00740027  RH  072%=      5-min Rain = 0
KCH1 131220Z 06003KT 07/03 A3001 RMK A01 T00730027  RH  072%=      5-min Rain = 0
KCH1 131221Z 07003KT 07/03 A3001 RMK A01 T00730028  RH  073%=      5-min Rain = 0
KCH1 131222Z 07003KT 07/03 A3001 RMK A01 T00720027  RH  073%=      5-min Rain = 0
KCH1 131223Z 08003KT 07/03 A3001 RMK A01 T00720027  RH  073%=      5-min Rain = 0
KCH1 131224Z 09003KT 07/03 A3001 RMK A01 T00720027  RH  073%=      5-min Rain = 0
KCH1 131225Z 09003KT 07/03 A3001 RMK A01 T00720027  RH  073%=      5-min Rain = 0
KCH1 131226Z 08003KT 07/03 A3001 RMK A01 T00710027  RH  073%=      5-min Rain = 0
KCH1 131227Z 07003KT 07/03 A3001 RMK A01 T00710027  RH  074%=      5-min Rain = 0
KCH1 131228Z 06004KT 07/03 A3001 RMK A01 T00700028  RH  074%=      5-min Rain = 0
KCH1 131229Z 06004KT 07/03 A3001 RMK A01 T00690028  RH  075%=      5-min Rain = 0
KCH1 131230Z 07004KT 07/03 A3001 RMK A01 T00680028  RH  076%=      5-min Rain = 0
KCH1 131231Z 07004KT 07/03 A3001 RMK A01 T00670028  RH  076%=      5-min Rain = 0
KCH1 131232Z 07004KT 07/03 A3001 RMK A01 T00660028  RH  077%=      5-min Rain = 0
KCH1 131233Z 07004KT 07/03 A3001 RMK A01 T00650029  RH  078%=      5-min Rain = 0
KCH1 131234Z 07004KT 06/03 A3001 RMK A01 T00640029  RH  078%=      5-min Rain = 0
KCH1 131235Z 07005KT 06/03 A3001 RMK A01 T00630029  RH  078%=      5-min Rain = 0
KCH1 131236Z 07005KT 06/03 A3001 RMK A01 T00630029  RH  079%=      5-min Rain = 0
KCH1 131237Z 07004KT 06/03 A3001 RMK A01 T00620030  RH  080%=      5-min Rain = 0
KCH1 131238Z 07004KT 06/03 A3001 RMK A01 T00610029  RH  080%=      5-min Rain = 0
KCH1 131239Z 07004KT 06/03 A3001 RMK A01 T00610029  RH  080%=      5-min Rain = 0
KCH1 131240Z 07004KT 06/03 A3001 RMK A01 T00610030  RH  081%=      5-min Rain = 0
KCH1 131241Z 07004KT 06/03 A3001 RMK A01 T00600030  RH  081%=      5-min Rain = 0
KCH1 131242Z 07004KT 06/03 A3001 RMK A01 T00600030  RH  081%=      5-min Rain = 0
KCH1 131243Z 07004KT 06/03 A3001 RMK A01 T00600030  RH  081%=      5-min Rain = 0
KCH1 131244Z 06004KT 06/03 A3001 RMK A01 T00600029  RH  081%=      5-min Rain = 0
KCH1 131245Z 06004KT 06/03 A3001 RMK A01 T00600029  RH  081%=      5-min Rain = 0
KCH1 131246Z 06004KT 06/03 A3001 RMK A01 T00600029  RH  081%=      5-min Rain = 0
KCH1 131247Z 07004KT 06/03 A3001 RMK A01 T00610029  RH  080%=      5-min Rain = 0
KCH1 131248Z 08004KT 06/03 A3001 RMK A01 T00610029  RH  080%=      5-min Rain = 0
KCH1 131249Z 09004KT 06/03 A3001 RMK A01 T00610028  RH  080%=      5-min Rain = 0
KCH1 131250Z 09004KT 06/03 A3001 RMK A01 T00610028  RH  079%=      5-min Rain = 0
KCH1 131251Z 10004KT 06/03 A3002 RMK A01 T00620028  RH  079%=      5-min Rain = 0
KCH1 131252Z 10004KT 06/03 A3002 RMK A01 T00630027  RH  078%=      5-min Rain = 0
KCH1 131253Z 09004KT 06/03 A3002 RMK A01 T00640027  RH  077%=      5-min Rain = 0
KCH1 131254Z 09005KT 07/03 A3002 RMK A01 T00660027  RH  077%=      5-min Rain = 0
KCH1 131255Z 10004KT 07/03 A3002 RMK A01 T00660028  RH  076%=      5-min Rain = 0
KCH1 131256Z 10004KT 07/03 A3002 RMK A01 T00670028  RH  076%=      5-min Rain = 0
KCH1 131257Z 10004KT 07/03 A3002 RMK A01 T00670028  RH  076%=      5-min Rain = 0
KCH1 131258Z 10005KT 07/03 A3002 RMK A01 T00680029  RH  076%=      5-min Rain = 0
KCH1 131259Z 10005KT 07/03 A3002 RMK A01 T00690029  RH  076%=      5-min Rain = 0
KCH1 131300Z 10004KT 07/03 A3002 RMK A01 T00690029  RH  075%=      5-min Rain = 0
KCH1 131301Z 10004KT 07/03 A3002 RMK A01 T00700029  RH  075%=      5-min Rain = 0
KCH1 131302Z 10004KT 07/03 A3002 RMK A01 T00720029  RH  074%=      5-min Rain = 0
KCH1 131303Z 09004KT 07/03 A3002 RMK A01 T00720029  RH  074%=      5-min Rain = 0
KCH1 131304Z 09004KT 07/03 A3002 RMK A01 T00720029  RH  074%=      5-min Rain = 0
KCH1 131305Z 09004KT 07/03 A3002 RMK A01 T00720029  RH  074%=      5-min Rain = 0
KCH1 131306Z 09004KT 07/03 A3002 RMK A01 T00730030  RH  074%=      5-min Rain = 0
KCH1 131307Z 10004KT 07/03 A3002 RMK A01 T00730031  RH  075%=      5-min Rain = 0
KCH1 131308Z 10004KT 07/03 A3002 RMK A01 T00740031  RH  074%=      5-min Rain = 0
KCH1 131309Z 09004KT 07/03 A3002 RMK A01 T00740030  RH  074%=      5-min Rain = 0
KCH1 131310Z 06003KT 07/03 A3002 RMK A01 T00730032  RH  075%=      5-min Rain = 0
KCH1 131311Z 05004KT 07/03 A3002 RMK A01 T00720032  RH  075%=      5-min Rain = 0
KCH1 131312Z 06004KT 07/03 A3002 RMK A01 T00710033  RH  076%=      5-min Rain = 0
KCH1 131313Z 06003KT 07/03 A3002 RMK A01 T00710032  RH  076%=      5-min Rain = 0
KCH1 131314Z 07003KT 07/03 A3002 RMK A01 T00710032  RH  076%=      5-min Rain = 0
KCH1 131315Z 07003KT 07/03 A3003 RMK A01 T00730034  RH  076%=      5-min Rain = 0
KCH1 131316Z 06004KT 07/03 A3003 RMK A01 T00740034  RH  076%=      5-min Rain = 0
KCH1 131317Z 06004KT 07/03 A3003 RMK A01 T00740033  RH  075%=      5-min Rain = 0
KCH1 131318Z 06003KT 07/04 A3003 RMK A01 T00740035  RH  076%=      5-min Rain = 0
KCH1 131319Z 08003KT 08/04 A3003 RMK A01 T00750035  RH  075%=      5-min Rain = 0
KCH1 131320Z 10003KT 08/03 A3003 RMK A01 T00760033  RH  074%=      5-min Rain = 0
KCH1 131321Z 11004KT 08/03 A3003 RMK A01 T00770034  RH  074%=      5-min Rain = 0
KCH1 131322Z 10004KT 08/04 A3003 RMK A01 T00780036  RH  075%=      5-min Rain = 0
KCH1 131323Z 10004KT 08/04 A3003 RMK A01 T00800038  RH  075%=      5-min Rain = 0
KCH1 131324Z 09003KT 08/04 A3003 RMK A01 T00810038  RH  074%=      5-min Rain = 0
KCH1 131325Z 07003KT 08/04 A3003 RMK A01 T00820036  RH  073%=      5-min Rain = 0
KCH1 131326Z 06003KT 08/04 A3003 RMK A01 T00820036  RH  073%=      5-min Rain = 0
KCH1 131327Z 06003KT 08/04 A3003 RMK A01 T00820037  RH  073%=      5-min Rain = 0
KCH1 131328Z 07003KT 08/04 A3003 RMK A01 T00830035  RH  072%=      5-min Rain = 0
KCH1 131329Z 07003KT 08/04 A3003 RMK A01 T00830037  RH  073%=      5-min Rain = 0
KCH1 131330Z 08002KT 08/04 A3003 RMK A01 T00830039  RH  074%=      5-min Rain = 0
KCH1 131331Z 09002KT 08/04 A3003 RMK A01 T00840039  RH  073%=      5-min Rain = 0
KCH1 131332Z 09002KT 09/04 A3003 RMK A01 T00850038  RH  072%=      5-min Rain = 0
KCH1 131333Z 09001KT 09/04 A3003 RMK A01 T00860037  RH  071%=      5-min Rain = 0
KCH1 131334Z 08002KT 09/04 A3003 RMK A01 T00860038  RH  072%=      5-min Rain = 0
KCH1 131335Z 07002KT 09/04 A3003 RMK A01 T00870040  RH  072%=      5-min Rain = 0
KCH1 131336Z 07002KT 09/04 A3003 RMK A01 T00870038  RH  071%=      5-min Rain = 0
KCH1 131337Z 07002KT 09/04 A3003 RMK A01 T00880037  RH  070%=      5-min Rain = 0
KCH1 131338Z 07002KT 09/04 A3003 RMK A01 T00880040  RH  072%=      5-min Rain = 0
KCH1 131339Z 08002KT 09/04 A3003 RMK A01 T00880043  RH  073%=      5-min Rain = 0
KCH1 131340Z 07002KT 09/04 A3003 RMK A01 T00890043  RH  073%=      5-min Rain = 0
KCH1 131341Z 07003KT 09/04 A3003 RMK A01 T00890044  RH  073%=      5-min Rain = 0
KCH1 131342Z 07002KT 09/04 A3003 RMK A01 T00900044  RH  073%=      5-min Rain = 0
KCH1 131343Z 06002KT 09/05 A3003 RMK A01 T00910045  RH  073%=      5-min Rain = 0
KCH1 131344Z 06002KT 09/05 A3003 RMK A01 T00910045  RH  073%=      5-min Rain = 0
KCH1 131345Z 06002KT 09/05 A3003 RMK A01 T00930045  RH  072%=      5-min Rain = 0
KCH1 131346Z 07002KT 09/04 A3003 RMK A01 T00940044  RH  071%=      5-min Rain = 0
KCH1 131347Z 07002KT 10/05 A3003 RMK A01 T00950046  RH  072%=      5-min Rain = 0
KCH1 131348Z 09001KT 10/05 A3003 RMK A01 T00970047  RH  071%=      5-min Rain = 0
KCH1 131349Z 10001KT 10/05 A3003 RMK A01 T00980046  RH  070%=      5-min Rain = 0
KCH1 131350Z 11001KT 10/05 A3003 RMK A01 T01000047  RH  069%=      5-min Rain = 0
KCH1 131351Z 12002KT 10/05 A3003 RMK A01 T01020047  RH  069%=      5-min Rain = 0
KCH1 131352Z 11002KT 10/05 A3003 RMK A01 T01040045  RH  067%=      5-min Rain = 0
KCH1 131353Z 10001KT 11/04 A3003 RMK A01 T01050044  RH  066%=      5-min Rain = 0
KCH1 131354Z 12001KT 11/05 A3003 RMK A01 T01060045  RH  066%=      5-min Rain = 0
KCH1 131355Z 12002KT 11/05 A3003 RMK A01 T01070046  RH  066%=      5-min Rain = 0
KCH1 131356Z 13001KT 11/05 A3003 RMK A01 T01080045  RH  065%=      5-min Rain = 0
KCH1 131357Z 16002KT 11/05 A3003 RMK A01 T01090048  RH  066%=      5-min Rain = 0
KCH1 131358Z 17002KT 11/05 A3003 RMK A01 T01100047  RH  065%=      5-min Rain = 0
KCH1 131359Z 18002KT 11/05 A3003 RMK A01 T01110049  RH  065%=      5-min Rain = 0
KCH1 131400Z 15003KT 11/04 A3003 RMK A01 T01130044  RH  063%=      5-min Rain = 0
KCH1 131401Z 16002KT 11/04 A3003 RMK A01 T01130042  RH  062%=      5-min Rain = 0
KCH1 131402Z 14003KT 11/04 A3003 RMK A01 T01140042  RH  061%=      5-min Rain = 0
KCH1 131403Z 16003KT 12/04 A3003 RMK A01 T01150040  RH  060%=      5-min Rain = 0
KCH1 131404Z 14002KT 12/04 A3003 RMK A01 T01160040  RH  059%=      5-min Rain = 0
KCH1 131405Z 16002KT 12/04 A3003 RMK A01 T01170043  RH  060%=      5-min Rain = 0
KCH1 131406Z 16003KT 12/04 A3003 RMK A01 T01180042  RH  060%=      5-min Rain = 0
KCH1 131407Z 16002KT 12/04 A3003 RMK A01 T01180041  RH  059%=      5-min Rain = 0
KCH1 131408Z 14003KT 12/04 A3003 RMK A01 T01190041  RH  059%=      5-min Rain = 0
KCH1 131409Z 15002KT 12/04 A3003 RMK A01 T01190041  RH  059%=      5-min Rain = 0
KCH1 131410Z 18002KT 12/05 A3003 RMK A01 T01200046  RH  060%=      5-min Rain = 0
KCH1 131411Z 17002KT 12/05 A3003 RMK A01 T01220046  RH  060%=      5-min Rain = 0
KCH1 131412Z 20002KT 12/05 A3003 RMK A01 T01230046  RH  059%=      5-min Rain = 0
KCH1 131413Z 19003KT 12/05 A3004 RMK A01 T01230047  RH  060%=      5-min Rain = 0
KCH1 131414Z 17003KT 12/04 A3004 RMK A01 T01240043  RH  058%=      5-min Rain = 0
KCH1 131415Z 17003KT 12/04 A3004 RMK A01 T01240041  RH  057%=      5-min Rain = 0
KCH1 131416Z 18002KT 13/04 A3004 RMK A01 T01250042  RH  057%=      5-min Rain = 0
KCH1 131417Z 18003KT 13/04 A3004 RMK A01 T01250041  RH  057%=      5-min Rain = 0
KCH1 131418Z 18004KT 13/04 A3004 RMK A01 T01260038  RH  055%=      5-min Rain = 0
KCH1 131419Z 17002KT 13/04 A3004 RMK A01 T01250038  RH  055%=      5-min Rain = 0
KCH1 131420Z 18003KT 13/04 A3004 RMK A01 T01260042  RH  057%=      5-min Rain = 0
KCH1 131421Z 16003KT 13/04 A3004 RMK A01 T01280042  RH  056%=      5-min Rain = 0
KCH1 131422Z 18003KT 13/04 A3004 RMK A01 T01300041  RH  055%=      5-min Rain = 0
KCH1 131423Z 18003KT 13/04 A3004 RMK A01 T01300040  RH  054%=      5-min Rain = 0
KCH1 131424Z 17003KT 13/04 A3004 RMK A01 T01300039  RH  054%=      5-min Rain = 0
KCH1 131425Z 18003KT 13/04 A3004 RMK A01 T01300039  RH  054%=      5-min Rain = 0
KCH1 131426Z 17003KT 13/04 A3004 RMK A01 T01300039  RH  054%=      5-min Rain = 0
KCH1 131427Z 19002KT 13/04 A3004 RMK A01 T01310039  RH  054%=      5-min Rain = 0
KCH1 131428Z 16002KT 13/04 A3004 RMK A01 T01320038  RH  053%=      5-min Rain = 0
KCH1 131429Z 15003KT 13/04 A3004 RMK A01 T01330041  RH  054%=      5-min Rain = 0
KCH1 131430Z 15002KT 14/04 A3004 RMK A01 T01350039  RH  052%=      5-min Rain = 0
KCH1 131431Z 17002KT 14/04 A3004 RMK A01 T01370040  RH  052%=      5-min Rain = 0
KCH1 131432Z 18003KT 14/04 A3004 RMK A01 T01390035  RH  050%=      5-min Rain = 0
KCH1 131433Z 17003KT 14/03 A3004 RMK A01 T01380034  RH  049%=      5-min Rain = 0
KCH1 131434Z 18003KT 14/03 A3004 RMK A01 T01380032  RH  049%=      5-min Rain = 0
KCH1 131435Z 16001KT 14/04 A3004 RMK A01 T01390035  RH  050%=      5-min Rain = 0
KCH1 131436Z 15001KT 14/04 A3004 RMK A01 T01420040  RH  050%=      5-min Rain = 0
KCH1 131437Z 17002KT 15/04 A3004 RMK A01 T01450039  RH  049%=      5-min Rain = 0
KCH1 131438Z 16002KT 15/04 A3004 RMK A01 T01460036  RH  048%=      5-min Rain = 0
KCH1 131439Z 17004KT 15/04 A3004 RMK A01 T01460037  RH  048%=      5-min Rain = 0
KCH1 131440Z 16004KT 15/04 A3004 RMK A01 T01450036  RH  048%=      5-min Rain = 0
KCH1 131441Z 18002KT 14/04 A3004 RMK A01 T01440037  RH  049%=      5-min Rain = 0
KCH1 131442Z 18002KT 14/04 A3004 RMK A01 T01440039  RH  049%=      5-min Rain = 0
KCH1 131443Z 17003KT 15/04 A3004 RMK A01 T01460038  RH  048%=      5-min Rain = 0
KCH1 131444Z 16003KT 15/04 A3004 RMK A01 T01480037  RH  047%=      5-min Rain = 0
KCH1 131445Z 19003KT 15/03 A3004 RMK A01 T01490034  RH  046%=      5-min Rain = 0
KCH1 131446Z 21004KT 15/03 A3004 RMK A01 T01480032  RH  046%=      5-min Rain = 0
KCH1 131447Z 21003KT 15/03 A3004 RMK A01 T01460030  RH  046%=      5-min Rain = 0
KCH1 131448Z 21003KT 14/03 A3004 RMK A01 T01440032  RH  047%=      5-min Rain = 0
KCH1 131449Z 18003KT 14/03 A3004 RMK A01 T01430034  RH  048%=      5-min Rain = 0
KCH1 131450Z 17002KT 14/03 A3004 RMK A01 T01440034  RH  048%=      5-min Rain = 0
KCH1 131451Z 20002KT 15/04 A3004 RMK A01 T01470036  RH  047%=      5-min Rain = 0
KCH1 131452Z 19001KT 15/03 A3005 RMK A01 T01480034  RH  046%=      5-min Rain = 0
KCH1 131453Z 19002KT 15/04 A3005 RMK A01 T01490037  RH  047%=      5-min Rain = 0
KCH1 131454Z 20004KT 15/04 A3005 RMK A01 T01510035  RH  046%=      5-min Rain = 0
KCH1 131455Z 20003KT 15/03 A3005 RMK A01 T01510034  RH  046%=      5-min Rain = 0
KCH1 131456Z 20004KT 15/03 A3004 RMK A01 T01490034  RH  046%=      5-min Rain = 0
KCH1 131457Z 21003KT 15/04 A3004 RMK A01 T01490035  RH  047%=      5-min Rain = 0
KCH1 131458Z 21004KT 15/04 A3004 RMK A01 T01500036  RH  046%=      5-min Rain = 0
KCH1 131459Z 19002KT 15/03 A3005 RMK A01 T01500033  RH  045%=      5-min Rain = 0
KCH1 131500Z 19003KT 15/04 A3004 RMK A01 T01490036  RH  047%=      5-min Rain = 0
KCH1 131501Z 24003KT 15/04 A3004 RMK A01 T01500036  RH  046%=      5-min Rain = 0
KCH1 131502Z 23003KT 15/04 A3004 RMK A01 T01520035  RH  045%=      5-min Rain = 0
KCH1 131503Z 18003KT 15/04 A3005 RMK A01 T01520036  RH  046%=      5-min Rain = 0
KCH1 131504Z 17004KT 15/04 A3005 RMK A01 T01540040  RH  046%=      5-min Rain = 0
KCH1 131505Z 16003KT 16/04 A3005 RMK A01 T01560038  RH  045%=      5-min Rain = 0
KCH1 131506Z 17004KT 16/04 A3005 RMK A01 T01560038  RH  045%=      5-min Rain = 0
KCH1 131507Z 20004KT 16/04 A3005 RMK A01 T01570041  RH  046%=      5-min Rain = 0
KCH1 131508Z 17004KT 16/04 A3005 RMK A01 T01590039  RH  045%=      5-min Rain = 0
KCH1 131509Z 17004KT 16/04 A3005 RMK A01 T01610040  RH  045%=      5-min Rain = 0
KCH1 131510Z 18004KT 16/04 A3004 RMK A01 T01630037  RH  043%=      5-min Rain = 0
KCH1 131511Z 17004KT 16/04 A3004 RMK A01 T01640035  RH  042%=      5-min Rain = 0
KCH1 131512Z 20005KT 17/03 A3004 RMK A01 T01660030  RH  040%=      5-min Rain = 0
KCH1 131513Z 18006KT 17/02 A3004 RMK A01 T01660024  RH  039%=      5-min Rain = 0
KCH1 131514Z 20005KT 17/03 A3004 RMK A01 T01650025  RH  039%=      5-min Rain = 0
KCH1 131515Z 21005KT 17/02 A3004 RMK A01 T01650024  RH  039%=      5-min Rain = 0
KCH1 131516Z 20006KT 17/03 A3004 RMK A01 T01660026  RH  039%=      5-min Rain = 0
KCH1 131517Z 20008KT 17/02 A3004 RMK A01 T01670023  RH  038%=      5-min Rain = 0
KCH1 131518Z 20006KT 17/02 A3004 RMK A01 T01670022  RH  038%=      5-min Rain = 0
KCH1 131519Z 21006KT 17/02 A3004 RMK A01 T01680021  RH  037%=      5-min Rain = 0
KCH1 131520Z 20004KT 17/02 A3004 RMK A01 T01680023  RH  038%=      5-min Rain = 0
KCH1 131521Z 20005KT 17/02 A3004 RMK A01 T01690023  RH  038%=      5-min Rain = 0
KCH1 131522Z 19007KT 17/02 A3004 RMK A01 T01700020  RH  037%=      5-min Rain = 0
KCH1 131523Z 19005KT 17/02 A3004 RMK A01 T01700021  RH  037%=      5-min Rain = 0
KCH1 131524Z 20006KT 17/02 A3004 RMK A01 T01720024  RH  037%=      5-min Rain = 0
KCH1 131525Z 22004KT 17/02 A3004 RMK A01 T01740024  RH  037%=      5-min Rain = 0
KCH1 131526Z 21004KT 18/03 A3004 RMK A01 T01750025  RH  037%=      5-min Rain = 0
KCH1 131527Z 20005KT 18/02 A3004 RMK A01 T01760023  RH  036%=      5-min Rain = 0
KCH1 131528Z 20004KT 18/02 A3004 RMK A01 T01750023  RH  036%=      5-min Rain = 0
KCH1 131529Z 19007KT 18/02 A3004 RMK A01 T01770023  RH  036%=      5-min Rain = 0
KCH1 131530Z 21008KT 18/02 A3004 RMK A01 T01770020  RH  035%=      5-min Rain = 0
KCH1 131531Z 22007KT 17/02 A3004 RMK A01 T01740019  RH  035%=      5-min Rain = 0
KCH1 131532Z 22005KT 17/02 A3004 RMK A01 T01720022  RH  036%=      5-min Rain = 0
KCH1 131533Z 22008KT 17/02 A3004 RMK A01 T01740023  RH  036%=      5-min Rain = 0
KCH1 131534Z 22005KT 17/02 A3004 RMK A01 T01740023  RH  036%=      5-min Rain = 0
KCH1 131535Z 22007KT 17/02 A3004 RMK A01 T01740022  RH  036%=      5-min Rain = 0
KCH1 131536Z 22004KT 17/02 A3004 RMK A01 T01720020  RH  036%=      5-min Rain = 0
KCH1 131537Z 20004KT 17/03 A3004 RMK A01 T01720025  RH  037%=      5-min Rain = 0
KCH1 131538Z 22004KT 18/02 A3004 RMK A01 T01750024  RH  036%=      5-min Rain = 0
KCH1 131539Z 23005KT 18/03 A3004 RMK A01 T01760027  RH  037%=      5-min Rain = 0
KCH1 131540Z 23007KT 18/02 A3004 RMK A01 T01770023  RH  036%=      5-min Rain = 0
KCH1 131541Z 23006KT 18/02 A3004 RMK A01 T01760024  RH  036%=      5-min Rain = 0
KCH1 131542Z 21005KT 18/02 A3004 RMK A01 T01750024  RH  036%=      5-min Rain = 0
KCH1 131543Z 21006KT 18/02 A3004 RMK A01 T01750022  RH  036%=      5-min Rain = 0
KCH1 131544Z 21006KT 17/02 A3004 RMK A01 T01730023  RH  036%=      5-min Rain = 0
KCH1 131545Z 20005KT 17/03 A3004 RMK A01 T01740025  RH  037%=      5-min Rain = 0
KCH1 131546Z 19006KT 18/03 A3004 RMK A01 T01760025  RH  036%=      5-min Rain = 0
KCH1 131547Z 19005KT 18/03 A3004 RMK A01 T01770025  RH  036%=      5-min Rain = 0
KCH1 131548Z 23004KT 18/03 A3004 RMK A01 T01780025  RH  036%=      5-min Rain = 0
KCH1 131549Z 23004KT 18/03 A3004 RMK A01 T01790027  RH  036%=      5-min Rain = 0
KCH1 131550Z 20007KT 18/03 A3004 RMK A01 T01800027  RH  036%=      5-min Rain = 0
KCH1 131551Z 21004KT 18/03 A3004 RMK A01 T01790026  RH  036%=      5-min Rain = 0
KCH1 131552Z 21005KT 18/03 A3004 RMK A01 T01790027  RH  036%=      5-min Rain = 0
KCH1 131553Z 20005KT 18/03 A3004 RMK A01 T01790027  RH  036%=      5-min Rain = 0
KCH1 131554Z 21005KT 18/03 A3004 RMK A01 T01810029  RH  036%=      5-min Rain = 0
KCH1 131555Z 21005KT 18/03 A3004 RMK A01 T01810027  RH  036%=      5-min Rain = 0
KCH1 131556Z 23006KT 18/03 A3004 RMK A01 T01810027  RH  036%=      5-min Rain = 0
KCH1 131557Z 24004KT 18/03 A3004 RMK A01 T01800029  RH  036%=      5-min Rain = 0
KCH1 131558Z 23006KT 18/03 A3004 RMK A01 T01810031  RH  037%=      5-min Rain = 0
KCH1 131559Z 19006KT 18/03 A3004 RMK A01 T01830031  RH  036%=      5-min Rain = 0
KCH1 131600Z 20005KT 19/03 A3004 RMK A01 T01850032  RH  036%=      5-min Rain = 0
KCH1 131601Z 21005KT 19/03 A3004 RMK A01 T01870033  RH  036%=      5-min Rain = 0
KCH1 131602Z 21006KT 19/03 A3004 RMK A01 T01890032  RH  035%=      5-min Rain = 0
KCH1 131603Z 21004KT 19/03 A3004 RMK A01 T01880031  RH  035%=      5-min Rain = 0
KCH1 131604Z 22004KT 19/03 A3004 RMK A01 T01880032  RH  035%=      5-min Rain = 0
KCH1 131605Z 20005KT 19/03 A3004 RMK A01 T01880030  RH  035%=      5-min Rain = 0
KCH1 131606Z 21006KT 19/03 A3004 RMK A01 T01890032  RH  035%=      5-min Rain = 0
KCH1 131607Z 21008KT 19/03 A3004 RMK A01 T01900031  RH  035%=      5-min Rain = 0
KCH1 131608Z 21006KT 19/03 A3004 RMK A01 T01890031  RH  035%=      5-min Rain = 0
KCH1 131609Z 21005KT 19/03 A3004 RMK A01 T01870031  RH  035%=      5-min Rain = 0
KCH1 131610Z 21004KT 19/03 A3004 RMK A01 T01880032  RH  035%=      5-min Rain = 0
KCH1 131611Z 23005KT 19/03 A3004 RMK A01 T01900031  RH  035%=      5-min Rain = 0
KCH1 131612Z 23004KT 19/03 A3004 RMK A01 T01900031  RH  035%=      5-min Rain = 0
KCH1 131613Z 22005KT 19/03 A3004 RMK A01 T01890032  RH  035%=      5-min Rain = 0
KCH1 131614Z 21005KT 19/03 A3004 RMK A01 T01900029  RH  034%=      5-min Rain = 0
KCH1 131615Z 22006KT 19/03 A3004 RMK A01 T01880028  RH  034%=      5-min Rain = 0
KCH1 131616Z 21006KT 19/03 A3004 RMK A01 T01870030  RH  035%=      5-min Rain = 0
KCH1 131617Z 21006KT 19/03 A3004 RMK A01 T01870030  RH  035%=      5-min Rain = 0
KCH1 131618Z 21005KT 19/03 A3004 RMK A01 T01890030  RH  035%=      5-min Rain = 0
KCH1 131619Z 19006KT 19/03 A3004 RMK A01 T01890030  RH  035%=      5-min Rain = 0
KCH1 131620Z 18004KT 19/03 A3004 RMK A01 T01890029  RH  034%=      5-min Rain = 0
KCH1 131621Z 20006KT 19/03 A3004 RMK A01 T01920031  RH  034%=      5-min Rain = 0
KCH1 131622Z 20006KT 19/03 A3004 RMK A01 T01930029  RH  034%=      5-min Rain = 0
KCH1 131623Z 19003KT 19/03 A3004 RMK A01 T01930030  RH  034%=      5-min Rain = 0
KCH1 131624Z 22004KT 19/03 A3004 RMK A01 T01940030  RH  034%=      5-min Rain = 0
KCH1 131625Z 21005KT 20/03 A3004 RMK A01 T01960032  RH  034%=      5-min Rain = 0
KCH1 131626Z 23007KT 20/03 A3004 RMK A01 T01980031  RH  033%=      5-min Rain = 0
KCH1 131627Z 22006KT 20/03 A3004 RMK A01 T01980028  RH  032%=      5-min Rain = 0
KCH1 131628Z 19003KT 20/03 A3004 RMK A01 T01970028  RH  033%=      5-min Rain = 0
KCH1 131629Z 16004KT 20/03 A3004 RMK A01 T01980028  RH  033%=      5-min Rain = 0
KCH1 131630Z 19005KT 20/03 A3004 RMK A01 T02000030  RH  032%=      5-min Rain = 0
KCH1 131631Z 17006KT 20/03 A3004 RMK A01 T02020030  RH  032%=      5-min Rain = 0
KCH1 131632Z 18005KT 20/03 A3003 RMK A01 T02020027  RH  031%=      5-min Rain = 0
KCH1 131633Z 20005KT 20/03 A3003 RMK A01 T02020027  RH  031%=      5-min Rain = 0
KCH1 131634Z 22006KT 20/03 A3003 RMK A01 T02020031  RH  032%=      5-min Rain = 0
KCH1 131635Z 21005KT 20/03 A3003 RMK A01 T02030029  RH  031%=      5-min Rain = 0
KCH1 131636Z 20004KT 20/03 A3003 RMK A01 T02030029  RH  032%=      5-min Rain = 0
KCH1 131637Z 20006KT 21/03 A3003 RMK A01 T02050030  RH  032%=      5-min Rain = 0
KCH1 131638Z 20005KT 21/03 A3003 RMK A01 T02050027  RH  031%=      5-min Rain = 0
KCH1 131639Z 20008KT 21/03 A3003 RMK A01 T02050028  RH  031%=      5-min Rain = 0
KCH1 131640Z 21005KT 20/03 A3003 RMK A01 T02040028  RH  031%=      5-min Rain = 0
KCH1 131641Z 23005KT 20/03 A3003 RMK A01 T02040029  RH  031%=      5-min Rain = 0
KCH1 131642Z 21004KT 20/03 A3003 RMK A01 T02040030  RH  032%=      5-min Rain = 0
KCH1 131643Z 20005KT 21/03 A3003 RMK A01 T02060029  RH  031%=      5-min Rain = 0
KCH1 131644Z 19005KT 21/03 A3003 RMK A01 T02070029  RH  031%=      5-min Rain = 0
KCH1 131645Z 21004KT 21/03 A3003 RMK A01 T02080032  RH  031%=      5-min Rain = 0
KCH1 131646Z 21006KT 21/03 A3003 RMK A01 T02110031  RH  031%=      5-min Rain = 0
KCH1 131647Z 21006KT 21/03 A3003 RMK A01 T02120028  RH  030%=      5-min Rain = 0
KCH1 131648Z 18009KT 21/03 A3003 RMK A01 T02100028  RH  030%=      5-min Rain = 0
KCH1 131649Z 19007KT 21/03 A3003 RMK A01 T02090026  RH  030%=      5-min Rain = 0
KCH1 131650Z 18007KT 21/03 A3003 RMK A01 T02090027  RH  030%=      5-min Rain = 0
KCH1 131651Z 19005KT 21/03 A3003 RMK A01 T02090026  RH  030%=      5-min Rain = 0
KCH1 131652Z 18006KT 21/03 A3003 RMK A01 T02100027  RH  030%=      5-min Rain = 0
KCH1 131653Z 18004KT 21/03 A3003 RMK A01 T02100025  RH  030%=      5-min Rain = 0
KCH1 131654Z 18005KT 21/03 A3003 RMK A01 T02100026  RH  030%=      5-min Rain = 0
KCH1 131655Z 22003KT 21/03 A3003 RMK A01 T02110031  RH  030%=      5-min Rain = 0
KCH1 131656Z 22005KT 21/03 A3003 RMK A01 T02140027  RH  029%=      5-min Rain = 0
KCH1 131657Z 19002KT 21/03 A3003 RMK A01 T02140027  RH  029%=      5-min Rain = 0
KCH1 131658Z 19006G11KT 22/03 A3003 RMK A01 T02150028  RH  029%=      5-min Rain = 0
KCH1 131659Z 20008KT 22/03 A3003 RMK A01 T02170027  RH  029%=      5-min Rain = 0
KCH1 131700Z 19007KT 22/03 A3003 RMK A01 T02170028  RH  029%=      5-min Rain = 0
KCH1 131701Z 18005KT 22/03 A3003 RMK A01 T02180028  RH  029%=      5-min Rain = 0
KCH1 131702Z 19006G11KT 22/03 A3003 RMK A01 T02180027  RH  028%=      5-min Rain = 0
KCH1 131703Z 20009KT 22/03 A3003 RMK A01 T02170027  RH  028%=      5-min Rain = 0
KCH1 131704Z 20004KT 22/03 A3003 RMK A01 T02160028  RH  029%=      5-min Rain = 0
KCH1 131705Z 20008KT 22/03 A3003 RMK A01 T02160028  RH  029%=      5-min Rain = 0
KCH1 131706Z 20007KT 22/03 A3003 RMK A01 T02160027  RH  029%=      5-min Rain = 0
KCH1 131707Z 18007KT 22/03 A3003 RMK A01 T02150027  RH  029%=      5-min Rain = 0
KCH1 131708Z 19005KT 22/03 A3002 RMK A01 T02160027  RH  029%=      5-min Rain = 0
KCH1 131709Z 17005KT 22/03 A3002 RMK A01 T02160026  RH  029%=      5-min Rain = 0
KCH1 131710Z 16004KT 22/03 A3002 RMK A01 T02150026  RH  029%=      5-min Rain = 0
KCH1 131711Z 18003KT 22/03 A3002 RMK A01 T02170030  RH  029%=      5-min Rain = 0
KCH1 131712Z 19004KT 22/03 A3002 RMK A01 T02190029  RH  028%=      5-min Rain = 0
KCH1 131713Z 22006KT 22/03 A3002 RMK A01 T02200030  RH  029%=      5-min Rain = 0
KCH1 131714Z 23005KT 22/03 A3002 RMK A01 T02210032  RH  029%=      5-min Rain = 0
KCH1 131715Z 22006KT 22/03 A3002 RMK A01 T02210029  RH  028%=      5-min Rain = 0
KCH1 131716Z 23007KT 22/03 A3002 RMK A01 T02190030  RH  029%=      5-min Rain = 0
KCH1 131717Z 21006KT 22/03 A3002 RMK A01 T02190029  RH  029%=      5-min Rain = 0
KCH1 131718Z 20007KT 22/03 A3002 RMK A01 T02200029  RH  029%=      5-min Rain = 0
KCH1 131719Z 18005KT 22/03 A3002 RMK A01 T02210030  RH  028%=      5-min Rain = 0
KCH1 131720Z 22004KT 22/03 A3002 RMK A01 T02220030  RH  028%=      5-min Rain = 0
KCH1 131721Z 25004KT 22/03 A3002 RMK A01 T02230031  RH  028%=      5-min Rain = 0
KCH1 131722Z 23003KT 22/03 A3002 RMK A01 T02230030  RH  028%=      5-min Rain = 0
KCH1 131723Z 22002KT 22/03 A3002 RMK A01 T02230031  RH  028%=      5-min Rain = 0
KCH1 131724Z 18003KT 22/03 A3002 RMK A01 T02240032  RH  028%=      5-min Rain = 0
KCH1 131725Z 19007KT 23/03 A3002 RMK A01 T02260033  RH  028%=      5-min Rain = 0
KCH1 131726Z 19006KT 23/03 A3002 RMK A01 T02270030  RH  028%=      5-min Rain = 0
KCH1 131727Z 20005KT 23/03 A3002 RMK A01 T02260033  RH  028%=      5-min Rain = 0
KCH1 131728Z 20008KT 23/03 A3002 RMK A01 T02280034  RH  028%=      5-min Rain = 0
KCH1 131729Z 19007KT 23/03 A3002 RMK A01 T02280033  RH  028%=      5-min Rain = 0
KCH1 131730Z 18007KT 23/03 A3002 RMK A01 T02270033  RH  028%=      5-min Rain = 0
KCH1 131731Z 20004KT 23/04 A3002 RMK A01 T02290035  RH  028%=      5-min Rain = 0
KCH1 131732Z 21004KT 23/03 A3002 RMK A01 T02310033  RH  027%=      5-min Rain = 0
KCH1 131733Z 18003G9KT 23/03 A3002 RMK A01 T02300034  RH  028%=      5-min Rain = 0
KCH1 131734Z 17007KT 23/03 A3002 RMK A01 T02310033  RH  027%=      5-min Rain = 0
KCH1 131735Z 18006KT 23/03 A3002 RMK A01 T02300033  RH  028%=      5-min Rain = 0
KCH1 131736Z 20007KT 23/04 A3002 RMK A01 T02320036  RH  028%=      5-min Rain = 0
KCH1 131737Z 20004KT 23/03 A3002 RMK A01 T02340034  RH  027%=      5-min Rain = 0
KCH1 131738Z 19004KT 23/04 A3002 RMK A01 T02340035  RH  027%=      5-min Rain = 0
KCH1 131739Z 15007KT 24/04 A3002 RMK A01 T02370036  RH  027%=      5-min Rain = 0
KCH1 131740Z 17006KT 24/03 A3002 RMK A01 T02380034  RH  026%=      5-min Rain = 0
KCH1 131741Z 16005KT 24/03 A3002 RMK A01 T02350032  RH  027%=      5-min Rain = 0
KCH1 131742Z 17007KT 23/04 A3001 RMK A01 T02340036  RH  027%=      5-min Rain = 0
KCH1 131743Z 18006KT 24/04 A3001 RMK A01 T02380038  RH  027%=      5-min Rain = 0
KCH1 131744Z 15005KT 24/04 A3001 RMK A01 T02420037  RH  026%=      5-min Rain = 0
KCH1 131745Z 17007KT 24/04 A3001 RMK A01 T02420037  RH  026%=      5-min Rain = 0
KCH1 131746Z 18006KT 24/04 A3001 RMK A01 T02430037  RH  026%=      5-min Rain = 0
KCH1 131747Z 18005KT 24/04 A3001 RMK A01 T02440037  RH  026%=      5-min Rain = 0
KCH1 131748Z 18005KT 24/03 A3001 RMK A01 T02420034  RH  026%=      5-min Rain = 0
KCH1 131749Z 18005KT 24/04 A3001 RMK A01 T02390035  RH  026%=      5-min Rain = 0
KCH1 131750Z 18005KT 24/03 A3001 RMK A01 T02370034  RH  027%=      5-min Rain = 0
KCH1 131751Z 18008KT 24/04 A3001 RMK A01 T02350036  RH  027%=      5-min Rain = 0
KCH1 131752Z 19008KT 24/04 A3001 RMK A01 T02370036  RH  027%=      5-min Rain = 0
KCH1 131753Z 20007KT 24/04 A3001 RMK A01 T02370036  RH  027%=      5-min Rain = 0
KCH1 131754Z 18005KT 24/04 A3001 RMK A01 T02360036  RH  027%=      5-min Rain = 0
KCH1 131755Z 20005KT 24/04 A3001 RMK A01 T02360036  RH  027%=      5-min Rain = 0
KCH1 131756Z 18004KT 24/04 A3001 RMK A01 T02360036  RH  027%=      5-min Rain = 0
KCH1 131757Z 18005KT 24/04 A3001 RMK A01 T02350037  RH  027%=      5-min Rain = 0
KCH1 131758Z 19007KT 24/04 A3001 RMK A01 T02370037  RH  027%=      5-min Rain = 0
KCH1 131759Z 18005KT 24/04 A3001 RMK A01 T02380037  RH  027%=      5-min Rain = 0
KCH1 131800Z 17004KT 24/04 A3001 RMK A01 T02380036  RH  027%=      5-min Rain = 0
KCH1 131801Z 18003KT 24/04 A3001 RMK A01 T02390037  RH  027%=      5-min Rain = 0
KCH1 131802Z 21004KT 24/04 A3001 RMK A01 T02400038  RH  027%=      5-min Rain = 0
KCH1 131803Z 21006KT 24/04 A3001 RMK A01 T02420041  RH  027%=      5-min Rain = 0
KCH1 131804Z 23004KT 25/04 A3001 RMK A01 T02450043  RH  027%=      5-min Rain = 0
KCH1 131805Z 20003KT 25/04 A3001 RMK A01 T02470044  RH  027%=      5-min Rain = 0
KCH1 131806Z 18006KT 25/04 A30 RMK A01 T02500042  RH  026%=      5-min Rain = 0
KCH1 131807Z 16007KT 25/04 A30 RMK A01 T02500042  RH  026%=      5-min Rain = 0
KCH1 131808Z 17008KT 25/04 A30 RMK A01 T02500042  RH  026%=      5-min Rain = 0
KCH1 131809Z 18005KT 25/04 A30 RMK A01 T02490039  RH  026%=      5-min Rain = 0
KCH1 131810Z 21003KT 25/05 A30 RMK A01 T02490045  RH  027%=      5-min Rain = 0
KCH1 131811Z 15005KT 25/04 A30 RMK A01 T02520043  RH  026%=      5-min Rain = 0
KCH1 131812Z 15006KT 25/04 A30 RMK A01 T02530041  RH  025%=      5-min Rain = 0
KCH1 131813Z 19006KT 25/04 A30 RMK A01 T02520042  RH  026%=      5-min Rain = 0
KCH1 131814Z 22007KT 25/04 A30 RMK A01 T02520044  RH  026%=      5-min Rain = 0
KCH1 131815Z 25006KT 25/04 A30 RMK A01 T02520041  RH  026%=      5-min Rain = 0
KCH1 131816Z 26005KT 25/04 A30 RMK A01 T02470040  RH  026%=      5-min Rain = 0
KCH1 131817Z 26002KT 24/04 A30 RMK A01 T02430037  RH  026%=      5-min Rain = 0
KCH1 131818Z 17003KT 24/04 A30 RMK A01 T02420039  RH  027%=      5-min Rain = 0
KCH1 131819Z 16005KT 25/04 A30 RMK A01 T02450042  RH  027%=      5-min Rain = 0
KCH1 131820Z 15006KT 25/04 A30 RMK A01 T02490042  RH  026%=      5-min Rain = 0
KCH1 131821Z 15006KT 25/04 A30 RMK A01 T02510041  RH  026%=      5-min Rain = 0
KCH1 131822Z 13004KT 25/04 A30 RMK A01 T02500042  RH  026%=      5-min Rain = 0
KCH1 131823Z 13002KT 25/04 A30 RMK A01 T02500041  RH  026%=      5-min Rain = 0
KCH1 131824Z 16004KT 25/04 A30 RMK A01 T02490042  RH  026%=      5-min Rain = 0
KCH1 131825Z 18005KT 25/04 A30 RMK A01 T02500042  RH  026%=      5-min Rain = 0
KCH1 131826Z 17007KT 25/04 A30 RMK A01 T02510044  RH  026%=      5-min Rain = 0
KCH1 131827Z 18004KT 25/04 A30 RMK A01 T02520043  RH  026%=      5-min Rain = 0
KCH1 131828Z 22005KT 25/04 A30 RMK A01 T02530044  RH  026%=      5-min Rain = 0
KCH1 131829Z 21006KT 25/04 A30 RMK A01 T02520043  RH  026%=      5-min Rain = 0
KCH1 131830Z 21006KT 25/04 A2999 RMK A01 T02510043  RH  026%=      5-min Rain = 0
KCH1 131831Z 24005KT 25/04 A2999 RMK A01 T02510044  RH  026%=      5-min Rain = 0
KCH1 131832Z 26004KT 25/04 A2999 RMK A01 T02510044  RH  026%=      5-min Rain = 0
KCH1 131833Z 22004KT 25/05 A2999 RMK A01 T02520045  RH  026%=      5-min Rain = 0
KCH1 131834Z 19005KT 26/05 A2999 RMK A01 T02550046  RH  026%=      5-min Rain = 0
KCH1 131835Z 20004KT 26/05 A2999 RMK A01 T02560045  RH  026%=      5-min Rain = 0
KCH1 131836Z 13004KT 26/04 A2999 RMK A01 T02570044  RH  025%=      5-min Rain = 0
KCH1 131837Z 14004KT 26/05 A2999 RMK A01 T02570045  RH  025%=      5-min Rain = 0
KCH1 131838Z 20006KT 26/05 A2999 RMK A01 T02590046  RH  025%=      5-min Rain = 0
KCH1 131839Z 22005KT 26/05 A2999 RMK A01 T02590045  RH  025%=      5-min Rain = 0
KCH1 131840Z 21002KT 26/04 A2999 RMK A01 T02570044  RH  025%=      5-min Rain = 0
KCH1 131841Z 24006KT 26/05 A2998 RMK A01 T02560045  RH  026%=      5-min Rain = 0
KCH1 131842Z 23007KT 26/04 A2998 RMK A01 T02550044  RH  026%=      5-min Rain = 0
KCH1 131843Z 24003KT 25/04 A2998 RMK A01 T02540044  RH  026%=      5-min Rain = 0
KCH1 131844Z 23004KT 25/05 A2998 RMK A01 T02530045  RH  026%=      5-min Rain = 0
KCH1 131845Z 22006KT 25/05 A2998 RMK A01 T02540045  RH  026%=      5-min Rain = 0
KCH1 131846Z 22005KT 26/05 A2998 RMK A01 T02550045  RH  026%=      5-min Rain = 0
KCH1 131847Z 23003KT 26/05 A2998 RMK A01 T02550045  RH  026%=      5-min Rain = 0
KCH1 131848Z 17004KT 26/05 A2998 RMK A01 T02550046  RH  026%=      5-min Rain = 0
KCH1 131849Z 16004KT 26/05 A2998 RMK A01 T02610052  RH  026%=      5-min Rain = 0
KCH1 131850Z 21002KT 27/05 A2998 RMK A01 T02670050  RH  025%=      5-min Rain = 0
KCH1 131851Z 26004KT 27/05 A2998 RMK A01 T02700050  RH  024%=      5-min Rain = 0
KCH1 131852Z 22006KT 27/05 A2998 RMK A01 T02670048  RH  025%=      5-min Rain = 0
KCH1 131853Z 23006KT 26/05 A2998 RMK A01 T02630046  RH  025%=      5-min Rain = 0
KCH1 131854Z 20005KT 26/05 A2998 RMK A01 T02600047  RH  025%=      5-min Rain = 0
KCH1 131855Z 17006KT 26/05 A2998 RMK A01 T02610048  RH  025%=      5-min Rain = 0
KCH1 131856Z 17004KT 26/05 A2998 RMK A01 T02620047  RH  025%=      5-min Rain = 0
KCH1 131857Z 18006KT 26/05 A2998 RMK A01 T02630048  RH  025%=      5-min Rain = 0
KCH1 131858Z 19006KT 26/05 A2998 RMK A01 T02640048  RH  025%=      5-min Rain = 0
KCH1 131859Z 18006KT 27/05 A2998 RMK A01 T02650048  RH  025%=      5-min Rain = 0
KCH1 131900Z 19006KT 27/05 A2998 RMK A01 T02660048  RH  025%=      5-min Rain = 0
KCH1 131901Z 16003KT 26/05 A2998 RMK A01 T02620046  RH  025%=      5-min Rain = 0
KCH1 131902Z 20004KT 26/05 A2997 RMK A01 T02610048  RH  025%=      5-min Rain = 0
KCH1 131903Z 24001KT 26/05 A2997 RMK A01 T02620048  RH  025%=      5-min Rain = 0
KCH1 131904Z 17002KT 27/05 A2997 RMK A01 T02650049  RH  025%=      5-min Rain = 0
KCH1 131905Z 12003KT 27/05 A2997 RMK A01 T02660047  RH  025%=      5-min Rain = 0
KCH1 131906Z 11004KT 27/05 A2997 RMK A01 T02670050  RH  025%=      5-min Rain = 0
KCH1 131907Z 12004KT 27/05 A2997 RMK A01 T02690051  RH  025%=      5-min Rain = 0
KCH1 131908Z 16005KT 27/05 A2997 RMK A01 T02700051  RH  025%=      5-min Rain = 0
KCH1 131909Z 21006KT 27/05 A2997 RMK A01 T02720051  RH  024%=      5-min Rain = 0
KCH1 131910Z 21007KT 27/05 A2997 RMK A01 T02710051  RH  025%=      5-min Rain = 0
KCH1 131911Z 22006KT 27/05 A2997 RMK A01 T02700050  RH  024%=      5-min Rain = 0
KCH1 131912Z 21005KT 27/05 A2997 RMK A01 T02670048  RH  025%=      5-min Rain = 0
KCH1 131913Z 19004KT 26/05 A2997 RMK A01 T02640050  RH  025%=      5-min Rain = 0
KCH1 131914Z 19006KT 27/05 A2997 RMK A01 T02660052  RH  025%=      5-min Rain = 0
KCH1 131915Z 19004KT 27/05 A2997 RMK A01 T02680049  RH  025%=      5-min Rain = 0
KCH1 131916Z 16009KT 27/05 A2997 RMK A01 T02670051  RH  025%=      5-min Rain = 0
KCH1 131917Z 16009KT 27/05 A2997 RMK A01 T02670049  RH  025%=      5-min Rain = 0
KCH1 131918Z 18007KT 27/05 A2996 RMK A01 T02660050  RH  025%=      5-min Rain = 0
KCH1 131919Z 18008KT 27/05 A2996 RMK A01 T02660051  RH  025%=      5-min Rain = 0
KCH1 131920Z 15006KT 27/05 A2996 RMK A01 T02680051  RH  025%=      5-min Rain = 0
KCH1 131921Z 17003KT 27/05 A2996 RMK A01 T02680049  RH  025%=      5-min Rain = 0
KCH1 131922Z 18006G11KT 27/05 A2996 RMK A01 T02680052  RH  025%=      5-min Rain = 0
KCH1 131923Z 18008KT 27/05 A2996 RMK A01 T02700051  RH  025%=      5-min Rain = 0
KCH1 131924Z 17007KT 27/05 A2996 RMK A01 T02700051  RH  025%=      5-min Rain = 0
KCH1 131925Z 16007KT 27/05 A2996 RMK A01 T02700051  RH  025%=      5-min Rain = 0
KCH1 131926Z 16009KT 27/05 A2996 RMK A01 T02690050  RH  025%=      5-min Rain = 0
KCH1 131927Z 18007KT 27/05 A2996 RMK A01 T02690052  RH  025%=      5-min Rain = 0
KCH1 131928Z 19008KT 27/05 A2996 RMK A01 T02700052  RH  025%=      5-min Rain = 0
KCH1 131929Z 18008KT 27/05 A2996 RMK A01 T02700053  RH  025%=      5-min Rain = 0
KCH1 131930Z 19006KT 27/05 A2996 RMK A01 T02700053  RH  025%=      5-min Rain = 0
KCH1 131931Z 20007KT 27/05 A2996 RMK A01 T02720054  RH  025%=      5-min Rain = 0
KCH1 131932Z 20008KT 27/05 A2996 RMK A01 T02710053  RH  025%=      5-min Rain = 0
KCH1 131933Z 19007KT 27/05 A2996 RMK A01 T02700053  RH  025%=      5-min Rain = 0
KCH1 131934Z 20008KT 27/05 A2996 RMK A01 T02690053  RH  025%=      5-min Rain = 0
KCH1 131935Z 20006KT 27/05 A2996 RMK A01 T02690054  RH  025%=      5-min Rain = 0
KCH1 131936Z 20007KT 27/05 A2996 RMK A01 T02710054  RH  025%=      5-min Rain = 0
KCH1 131937Z 19008KT 27/05 A2996 RMK A01 T02710053  RH  025%=      5-min Rain = 0
KCH1 131938Z 18006KT 27/05 A2996 RMK A01 T02710053  RH  025%=      5-min Rain = 0
KCH1 131939Z 16005KT 27/05 A2996 RMK A01 T02700052  RH  025%=      5-min Rain = 0
KCH1 131940Z 15004KT 27/05 A2996 RMK A01 T02690052  RH  025%=      5-min Rain = 0
KCH1 131941Z 14004KT 27/05 A2996 RMK A01 T02680051  RH  025%=      5-min Rain = 0
KCH1 131942Z 15006KT 27/05 A2996 RMK A01 T02680053  RH  025%=      5-min Rain = 0
KCH1 131943Z 18004KT 27/06 A2996 RMK A01 T02690056  RH  026%=      5-min Rain = 0
KCH1 131944Z 20006KT 28/06 A2996 RMK A01 T02750059  RH  025%=      5-min Rain = 0
KCH1 131945Z 19007KT 28/06 A2996 RMK A01 T02780057  RH  024%=      5-min Rain = 0
KCH1 131946Z 19009KT 28/05 A2996 RMK A01 T02770054  RH  024%=      5-min Rain = 0
KCH1 131947Z 20007KT 27/05 A2996 RMK A01 T02730054  RH  025%=      5-min Rain = 0
KCH1 131948Z 19008KT 27/06 A2996 RMK A01 T02730056  RH  025%=      5-min Rain = 0
KCH1 131949Z 19009KT 27/06 A2996 RMK A01 T02730055  RH  025%=      5-min Rain = 0
KCH1 131950Z 21005KT 27/06 A2996 RMK A01 T02740056  RH  025%=      5-min Rain = 0
KCH1 131951Z 21008KT 28/06 A2995 RMK A01 T02750055  RH  025%=      5-min Rain = 0
KCH1 131952Z 19008KT 27/06 A2995 RMK A01 T02730055  RH  025%=      5-min Rain = 0
KCH1 131953Z 22006KT 27/06 A2995 RMK A01 T02720056  RH  025%=      5-min Rain = 0
KCH1 131954Z 21005KT 27/05 A2995 RMK A01 T02700053  RH  025%=      5-min Rain = 0
KCH1 131955Z 21003KT 27/05 A2995 RMK A01 T02690054  RH  025%=      5-min Rain = 0
KCH1 131956Z 21004KT 27/06 A2995 RMK A01 T02700055  RH  025%=      5-min Rain = 0
KCH1 131957Z 22005KT 27/06 A2995 RMK A01 T02710056  RH  025%=      5-min Rain = 0
KCH1 131958Z 17006KT 27/06 A2995 RMK A01 T02740059  RH  025%=      5-min Rain = 0
KCH1 131959Z 19007KT 28/06 A2995 RMK A01 T02780060  RH  025%=      5-min Rain = 0
KCH1 132000Z 18004KT 28/06 A2995 RMK A01 T02800057  RH  024%=      5-min Rain = 0
KCH1 132001Z 18008KT 28/06 A2995 RMK A01 T02790057  RH  024%=      5-min Rain = 0
KCH1 132002Z 16009KT 28/06 A2995 RMK A01 T02780057  RH  025%=      5-min Rain = 0
KCH1 132003Z 17006KT 28/06 A2995 RMK A01 T02770056  RH  024%=      5-min Rain = 0
KCH1 132004Z 16007KT 28/06 A2995 RMK A01 T02770058  RH  025%=      5-min Rain = 0
KCH1 132005Z 17010KT 28/06 A2995 RMK A01 T02770056  RH  025%=      5-min Rain = 0
KCH1 132006Z 19008KT 28/06 A2995 RMK A01 T02770057  RH  025%=      5-min Rain = 0
KCH1 132007Z 19009KT 28/06 A2995 RMK A01 T02760058  RH  025%=      5-min Rain = 0
KCH1 132008Z 18009KT 28/06 A2995 RMK A01 T02770058  RH  025%=      5-min Rain = 0
KCH1 132009Z 18009KT 28/06 A2995 RMK A01 T02770058  RH  025%=      5-min Rain = 0
KCH1 132010Z 17008KT 28/06 A2995 RMK A01 T02770057  RH  025%=      5-min Rain = 0
KCH1 132011Z 18008KT 28/06 A2995 RMK A01 T02770058  RH  025%=      5-min Rain = 0
KCH1 132012Z 20009KT 28/06 A2995 RMK A01 T02780058  RH  025%=      5-min Rain = 0
KCH1 132013Z 22007KT 28/06 A2995 RMK A01 T02780057  RH  025%=      5-min Rain = 0
KCH1 132014Z 18006KT 28/06 A2995 RMK A01 T02770059  RH  025%=      5-min Rain = 0
KCH1 132015Z 16009KT 28/06 A2995 RMK A01 T02780058  RH  025%=      5-min Rain = 0
KCH1 132016Z 17007KT 28/06 A2995 RMK A01 T02790058  RH  025%=      5-min Rain = 0
KCH1 132017Z 18006KT 28/06 A2995 RMK A01 T02800060  RH  025%=      5-min Rain = 0
KCH1 132018Z 21008KT 28/06 A2995 RMK A01 T02830059  RH  024%=      5-min Rain = 0
KCH1 132019Z 21007KT 28/06 A2995 RMK A01 T02810058  RH  024%=      5-min Rain = 0
KCH1 132020Z 19007KT 28/06 A2995 RMK A01 T02780059  RH  025%=      5-min Rain = 0
KCH1 132021Z 19009KT 28/06 A2995 RMK A01 T02780059  RH  025%=      5-min Rain = 0
KCH1 132022Z 18010KT 28/06 A2994 RMK A01 T02780059  RH  025%=      5-min Rain = 0
KCH1 132023Z 19008KT 28/06 A2995 RMK A01 T02790060  RH  025%=      5-min Rain = 0
KCH1 132024Z 19008KT 28/06 A2994 RMK A01 T02810061  RH  025%=      5-min Rain = 0
KCH1 132025Z 20007KT 28/06 A2995 RMK A01 T02830060  RH  024%=      5-min Rain = 0
KCH1 132026Z 19005KT 28/06 A2995 RMK A01 T02790058  RH  025%=      5-min Rain = 0
KCH1 132027Z 19008KT 28/06 A2995 RMK A01 T02780059  RH  025%=      5-min Rain = 0
KCH1 132028Z 19005KT 28/06 A2994 RMK A01 T02780057  RH  025%=      5-min Rain = 0
KCH1 132029Z 20005KT 28/06 A2994 RMK A01 T02770058  RH  025%=      5-min Rain = 0
KCH1 132030Z 21005G10KT 28/06 A2994 RMK A01 T02770059  RH  025%=      5-min Rain = 0
KCH1 132031Z 19008KT 28/06 A2994 RMK A01 T02770059  RH  025%=      5-min Rain = 0
KCH1 132032Z 17004KT 28/06 A2994 RMK A01 T02770058  RH  025%=      5-min Rain = 0
KCH1 132033Z 16007KT 28/06 A2994 RMK A01 T02760060  RH  025%=      5-min Rain = 0
KCH1 132034Z 18007KT 28/06 A2994 RMK A01 T02780059  RH  025%=      5-min Rain = 0
KCH1 132035Z 16006KT 28/06 A2994 RMK A01 T02790059  RH  025%=      5-min Rain = 0
KCH1 132036Z 18007KT 28/06 A2994 RMK A01 T02790059  RH  025%=      5-min Rain = 0
KCH1 132037Z 18008KT 28/06 A2994 RMK A01 T02800062  RH  025%=      5-min Rain = 0
KCH1 132038Z 19009KT 28/06 A2994 RMK A01 T02820060  RH  024%=      5-min Rain = 0
KCH1 132039Z 21007KT 28/06 A2994 RMK A01 T02820061  RH  025%=      5-min Rain = 0
KCH1 132040Z 21004KT 28/06 A2994 RMK A01 T02820060  RH  024%=      5-min Rain = 0
KCH1 132041Z 21003KT 28/06 A2994 RMK A01 T02810062  RH  025%=      5-min Rain = 0
KCH1 132042Z 19006KT 28/06 A2994 RMK A01 T02820062  RH  025%=      5-min Rain = 0
KCH1 132043Z 20007KT 28/06 A2994 RMK A01 T02830061  RH  025%=      5-min Rain = 0
KCH1 132044Z 18008KT 28/06 A2994 RMK A01 T02830061  RH  025%=      5-min Rain = 0
KCH1 132045Z 17008KT 28/06 A2994 RMK A01 T02820060  RH  024%=      5-min Rain = 0
KCH1 132046Z 17007KT 28/06 A2994 RMK A01 T02820061  RH  025%=      5-min Rain = 0
KCH1 132047Z 16004KT 28/06 A2994 RMK A01 T02820061  RH  025%=      5-min Rain = 0
KCH1 132048Z 16005KT 28/06 A2994 RMK A01 T02830062  RH  025%=      5-min Rain = 0
KCH1 132049Z 17008KT 29/06 A2994 RMK A01 T02850062  RH  024%=      5-min Rain = 0
KCH1 132050Z 18007KT 29/06 A2994 RMK A01 T02850062  RH  024%=      5-min Rain = 0
KCH1 132051Z 18006KT 29/06 A2994 RMK A01 T02850064  RH  025%=      5-min Rain = 0
KCH1 132052Z 15009KT 29/06 A2994 RMK A01 T02850061  RH  024%=      5-min Rain = 0
KCH1 132053Z 16007KT 28/06 A2994 RMK A01 T02840060  RH  024%=      5-min Rain = 0
KCH1 132054Z 18010KT 28/06 A2994 RMK A01 T02810061  RH  025%=      5-min Rain = 0
KCH1 132055Z 17006KT 28/06 A2994 RMK A01 T02800060  RH  025%=      5-min Rain = 0
KCH1 132056Z 17005KT 28/06 A2994 RMK A01 T02790060  RH  025%=      5-min Rain = 0
KCH1 132057Z 16006KT 28/06 A2994 RMK A01 T02790062  RH  025%=      5-min Rain = 0
KCH1 132058Z 16004KT 28/06 A2994 RMK A01 T02810062  RH  025%=      5-min Rain = 0
KCH1 132059Z 16005KT 28/06 A2994 RMK A01 T02840064  RH  025%=      5-min Rain = 0
KCH1 132100Z 18005KT 29/06 A2994 RMK A01 T02870063  RH  024%=      5-min Rain = 0
KCH1 132101Z 22004KT 29/06 A2994 RMK A01 T02880064  RH  024%=      5-min Rain = 0
KCH1 132102Z 20005KT 29/06 A2994 RMK A01 T02880063  RH  024%=      5-min Rain = 0
KCH1 132103Z 22006KT 29/06 A2994 RMK A01 T02880064  RH  024%=      5-min Rain = 0
KCH1 132104Z 22004KT 29/06 A2994 RMK A01 T02890062  RH  024%=      5-min Rain = 0
KCH1 132105Z 20005G10KT 29/06 A2994 RMK A01 T02890063  RH  024%=      5-min Rain = 0
KCH1 132106Z 19009KT 29/07 A2994 RMK A01 T02900065  RH  024%=      5-min Rain = 0
KCH1 132107Z 18008KT 29/06 A2994 RMK A01 T02900062  RH  024%=      5-min Rain = 0
KCH1 132108Z 16006KT 29/06 A2994 RMK A01 T02860061  RH  024%=      5-min Rain = 0
KCH1 132109Z 17006KT 28/06 A2994 RMK A01 T02840062  RH  024%=      5-min Rain = 0
KCH1 132110Z 18007KT 28/06 A2994 RMK A01 T02840062  RH  025%=      5-min Rain = 0
KCH1 132111Z 20008KT 29/07 A2994 RMK A01 T02850065  RH  025%=      5-min Rain = 0
KCH1 132112Z 21006KT 29/06 A2994 RMK A01 T02860063  RH  024%=      5-min Rain = 0
KCH1 132113Z 21007KT 29/06 A2993 RMK A01 T02860062  RH  024%=      5-min Rain = 0
KCH1 132114Z 21007KT 28/06 A2993 RMK A01 T02840063  RH  025%=      5-min Rain = 0
KCH1 132115Z 20009KT 29/06 A2993 RMK A01 T02850064  RH  025%=      5-min Rain = 0
KCH1 132116Z 20008KT 29/06 A2993 RMK A01 T02860062  RH  024%=      5-min Rain = 0
KCH1 132117Z 21007KT 29/07 A2993 RMK A01 T02860065  RH  025%=      5-min Rain = 0
KCH1 132118Z 19009KT 29/06 A2993 RMK A01 T02890064  RH  024%=      5-min Rain = 0
KCH1 132119Z 18008KT 29/06 A2993 RMK A01 T02890063  RH  024%=      5-min Rain = 0
KCH1 132120Z 19008KT 29/06 A2993 RMK A01 T02890062  RH  024%=      5-min Rain = 0
KCH1 132121Z 22005KT 29/07 A2993 RMK A01 T02890065  RH  024%=      5-min Rain = 0
KCH1 132122Z 22007KT 29/06 A2993 RMK A01 T02900064  RH  024%=      5-min Rain = 0
KCH1 132123Z 22007KT 29/06 A2993 RMK A01 T02890062  RH  024%=      5-min Rain = 0
KCH1 132124Z 21007KT 29/06 A2993 RMK A01 T02870062  RH  024%=      5-min Rain = 0
KCH1 132125Z 21004KT 29/06 A2993 RMK A01 T02860061  RH  024%=      5-min Rain = 0
KCH1 132126Z 18004KT 29/06 A2993 RMK A01 T02850061  RH  024%=      5-min Rain = 0
KCH1 132127Z 17008KT 29/06 A2993 RMK A01 T02850063  RH  024%=      5-min Rain = 0
KCH1 132128Z 16008KT 29/06 A2993 RMK A01 T02870062  RH  024%=      5-min Rain = 0
KCH1 132129Z 16008KT 29/06 A2993 RMK A01 T02870062  RH  024%=      5-min Rain = 0
KCH1 132130Z 17010KT 29/06 A2993 RMK A01 T02870063  RH  024%=      5-min Rain = 0
KCH1 132131Z 17008KT 29/06 A2993 RMK A01 T02880063  RH  024%=      5-min Rain = 0
KCH1 132132Z 18006KT 29/06 A2993 RMK A01 T02880062  RH  024%=      5-min Rain = 0
KCH1 132133Z 17005KT 29/06 A2993 RMK A01 T02870063  RH  024%=      5-min Rain = 0
KCH1 132134Z 17005KT 29/06 A2993 RMK A01 T02880064  RH  024%=      5-min Rain = 0
KCH1 132135Z 16005KT 29/06 A2993 RMK A01 T02890063  RH  024%=      5-min Rain = 0
KCH1 132136Z 16006KT 29/06 A2993 RMK A01 T02890064  RH  024%=      5-min Rain = 0
KCH1 132137Z 17007KT 29/06 A2993 RMK A01 T02900064  RH  024%=      5-min Rain = 0
KCH1 132138Z 17010KT 29/07 A2993 RMK A01 T02900065  RH  024%=      5-min Rain = 0
KCH1 132139Z 19008KT 29/07 A2993 RMK A01 T02900066  RH  024%=      5-min Rain = 0
KCH1 132140Z 20006KT 29/06 A2993 RMK A01 T02910064  RH  024%=      5-min Rain = 0
KCH1 132141Z 17007KT 29/07 A2993 RMK A01 T02900065  RH  024%=      5-min Rain = 0
KCH1 132142Z 16007KT 29/07 A2993 RMK A01 T02900065  RH  024%=      5-min Rain = 0
KCH1 132143Z 16006KT 29/06 A2993 RMK A01 T02910064  RH  024%=      5-min Rain = 0
KCH1 132144Z 16006KT 29/06 A2993 RMK A01 T02910064  RH  024%=      5-min Rain = 0
KCH1 132145Z 17006KT 29/07 A2993 RMK A01 T02910065  RH  024%=      5-min Rain = 0
KCH1 132146Z 18008KT 29/07 A2993 RMK A01 T02910066  RH  024%=      5-min Rain = 0
KCH1 132147Z 18009KT 29/07 A2993 RMK A01 T02920065  RH  024%=      5-min Rain = 0
KCH1 132148Z 19006KT 29/07 A2993 RMK A01 T02910066  RH  024%=      5-min Rain = 0
KCH1 132149Z 23005KT 29/07 A2993 RMK A01 T02910068  RH  024%=      5-min Rain = 0
KCH1 132150Z 24008KT 29/06 A2993 RMK A01 T02930064  RH  024%=      5-min Rain = 0
KCH1 132151Z 22005KT 29/06 A2993 RMK A01 T02920063  RH  024%=      5-min Rain = 0
KCH1 132152Z 20008KT 29/07 A2993 RMK A01 T02910065  RH  024%=      5-min Rain = 0
KCH1 132153Z 21008KT 29/06 A2993 RMK A01 T02920064  RH  024%=      5-min Rain = 0
KCH1 132154Z 20007KT 29/06 A2993 RMK A01 T02910063  RH  024%=      5-min Rain = 0
KCH1 132155Z 21009KT 29/06 A2993 RMK A01 T02910063  RH  024%=      5-min Rain = 0
KCH1 132156Z 20008KT 29/06 A2993 RMK A01 T02890062  RH  024%=      5-min Rain = 0
KCH1 132157Z 19007KT 29/06 A2993 RMK A01 T02870061  RH  024%=      5-min Rain = 0
KCH1 132158Z 19006KT 29/06 A2993 RMK A01 T02860063  RH  024%=      5-min Rain = 0
KCH1 132159Z 17009KT 29/06 A2993 RMK A01 T02860062  RH  024%=      5-min Rain = 0
KCH1 132200Z 17007KT 29/06 A2993 RMK A01 T02860064  RH  025%=      5-min Rain = 0
KCH1 132201Z 17008KT 29/06 A2993 RMK A01 T02860064  RH  024%=      5-min Rain = 0
KCH1 132202Z 17008KT 29/07 A2993 RMK A01 T02870065  RH  025%=      5-min Rain = 0
KCH1 132203Z 18008KT 29/07 A2993 RMK A01 T02880065  RH  024%=      5-min Rain = 0
KCH1 132204Z 18009KT 29/07 A2993 RMK A01 T02880065  RH  025%=      5-min Rain = 0
KCH1 132205Z 19010KT 29/06 A2993 RMK A01 T02870064  RH  024%=      5-min Rain = 0
KCH1 132206Z 20008KT 29/06 A2993 RMK A01 T02850063  RH  025%=      5-min Rain = 0
KCH1 132207Z 21008KT 28/06 A2993 RMK A01 T02840064  RH  025%=      5-min Rain = 0
KCH1 132208Z 18006KT 28/06 A2993 RMK A01 T02840064  RH  025%=      5-min Rain = 0
KCH1 132209Z 17009KT 28/07 A2993 RMK A01 T02840066  RH  025%=      5-min Rain = 0
KCH1 132210Z 18008KT 29/07 A2993 RMK A01 T02850066  RH  025%=      5-min Rain = 0
KCH1 132211Z 19009KT 29/07 A2993 RMK A01 T02860066  RH  025%=      5-min Rain = 0
KCH1 132212Z 19010KT 29/06 A2993 RMK A01 T02860063  RH  024%=      5-min Rain = 0
KCH1 132213Z 19008KT 29/06 A2993 RMK A01 T02850064  RH  025%=      5-min Rain = 0
KCH1 132214Z 18011KT 29/06 A2993 RMK A01 T02850063  RH  025%=      5-min Rain = 0
KCH1 132215Z 19009KT 28/06 A2993 RMK A01 T02840063  RH  025%=      5-min Rain = 0
KCH1 132216Z 20008KT 28/06 A2993 RMK A01 T02840063  RH  025%=      5-min Rain = 0
KCH1 132217Z 20005KT 28/07 A2993 RMK A01 T02830065  RH  025%=      5-min Rain = 0
KCH1 132218Z 19007KT 28/07 A2993 RMK A01 T02830066  RH  025%=      5-min Rain = 0
KCH1 132219Z 18009KT 28/07 A2993 RMK A01 T02840066  RH  025%=      5-min Rain = 0
KCH1 132220Z 19010KT 28/06 A2993 RMK A01 T02840064  RH  025%=      5-min Rain = 0
KCH1 132221Z 18011KT 28/06 A2993 RMK A01 T02830063  RH  025%=      5-min Rain = 0
KCH1 132222Z 18011KT 28/06 A2993 RMK A01 T02820063  RH  025%=      5-min Rain = 0
KCH1 132223Z 19009KT 28/07 A2993 RMK A01 T02810065  RH  025%=      5-min Rain = 0
KCH1 132224Z 19010KT 28/06 A2993 RMK A01 T02810064  RH  025%=      5-min Rain = 0
KCH1 132225Z 19008KT 28/06 A2993 RMK A01 T02820064  RH  025%=      5-min Rain = 0
KCH1 132226Z 19008KT 28/07 A2993 RMK A01 T02820065  RH  025%=      5-min Rain = 0
KCH1 132227Z 19005KT 28/07 A2993 RMK A01 T02830065  RH  025%=      5-min Rain = 0
KCH1 132228Z 18005KT 28/07 A2993 RMK A01 T02840066  RH  025%=      5-min Rain = 0
KCH1 132229Z 17007KT 28/07 A2993 RMK A01 T02840066  RH  025%=      5-min Rain = 0
KCH1 132230Z 18009KT 29/07 A2993 RMK A01 T02850065  RH  025%=      5-min Rain = 0
KCH1 132231Z 18010KT 29/06 A2993 RMK A01 T02850064  RH  025%=      5-min Rain = 0
KCH1 132232Z 18011KT 28/06 A2993 RMK A01 T02840062  RH  024%=      5-min Rain = 0
KCH1 132233Z 18008KT 28/06 A2993 RMK A01 T02830062  RH  025%=      5-min Rain = 0
KCH1 132234Z 21008KT 28/07 A2993 RMK A01 T02820065  RH  025%=      5-min Rain = 0
KCH1 132235Z 20009KT 28/06 A2993 RMK A01 T02820064  RH  025%=      5-min Rain = 0
KCH1 132236Z 20004KT 28/07 A2993 RMK A01 T02820065  RH  025%=      5-min Rain = 0
KCH1 132237Z 18007KT 28/07 A2993 RMK A01 T02820065  RH  025%=      5-min Rain = 0
KCH1 132238Z 19007KT 28/07 A2993 RMK A01 T02820065  RH  025%=      5-min Rain = 0
KCH1 132239Z 19010KT 28/06 A2993 RMK A01 T02820064  RH  025%=      5-min Rain = 0
KCH1 132240Z 20008KT 28/07 A2993 RMK A01 T02820065  RH  025%=      5-min Rain = 0
KCH1 132241Z 20009KT 28/07 A2993 RMK A01 T02820066  RH  026%=      5-min Rain = 0
KCH1 132242Z 19008KT 28/07 A2993 RMK A01 T02820066  RH  025%=      5-min Rain = 0
KCH1 132243Z 18007KT 28/07 A2993 RMK A01 T02830067  RH  025%=      5-min Rain = 0
KCH1 132244Z 18007KT 28/07 A2993 RMK A01 T02830068  RH  026%=      5-min Rain = 0
KCH1 132245Z 18008KT 28/07 A2993 RMK A01 T02830068  RH  026%=      5-min Rain = 0
KCH1 132246Z 20007KT 28/07 A2993 RMK A01 T02810067  RH  026%=      5-min Rain = 0
KCH1 132247Z 17004KT 28/07 A2993 RMK A01 T02800069  RH  026%=      5-min Rain = 0
KCH1 132248Z 17009KT 28/07 A2993 RMK A01 T02800069  RH  026%=      5-min Rain = 0
KCH1 132249Z 18010KT 28/07 A2993 RMK A01 T02790068  RH  026%=      5-min Rain = 0
KCH1 132250Z 19009KT 28/07 A2993 RMK A01 T02770067  RH  026%=      5-min Rain = 0
KCH1 132251Z 19009KT 28/07 A2993 RMK A01 T02760066  RH  026%=      5-min Rain = 0
KCH1 132252Z 19008KT 28/07 A2993 RMK A01 T02750066  RH  027%=      5-min Rain = 0
KCH1 132253Z 19010KT 27/07 A2994 RMK A01 T02740066  RH  027%=      5-min Rain = 0
KCH1 132254Z 19010KT 27/07 A2994 RMK A01 T02730067  RH  027%=      5-min Rain = 0
KCH1 132255Z 19008KT 27/07 A2994 RMK A01 T02730066  RH  027%=      5-min Rain = 0
KCH1 132256Z 19009KT 27/07 A2994 RMK A01 T02720067  RH  027%=      5-min Rain = 0
KCH1 132257Z 18008KT 27/07 A2994 RMK A01 T02710067  RH  027%=      5-min Rain = 0
KCH1 132258Z 18006KT 27/07 A2994 RMK A01 T02710068  RH  028%=      5-min Rain = 0
KCH1 132259Z 18008KT 27/07 A2994 RMK A01 T02700068  RH  028%=      5-min Rain = 0
KCH1 132300Z 18008KT 27/07 A2994 RMK A01 T02700069  RH  028%=      5-min Rain = 0
KCH1 132301Z 18008KT 27/07 A2994 RMK A01 T02690068  RH  028%=      5-min Rain = 0
KCH1 132302Z 17009KT 27/07 A2993 RMK A01 T02690068  RH  028%=      5-min Rain = 0
KCH1 132303Z 19006KT 27/07 A2993 RMK A01 T02680067  RH  028%=      5-min Rain = 0
KCH1 132304Z 19009KT 27/07 A2993 RMK A01 T02690068  RH  028%=      5-min Rain = 0
KCH1 132305Z 18007KT 27/07 A2993 RMK A01 T02680068  RH  028%=      5-min Rain = 0
KCH1 132306Z 19009KT 27/07 A2993 RMK A01 T02680068  RH  028%=      5-min Rain = 0
KCH1 132307Z 18007KT 27/07 A2993 RMK A01 T02680068  RH  028%=      5-min Rain = 0
KCH1 132308Z 18005KT 27/07 A2993 RMK A01 T02680069  RH  028%=      5-min Rain = 0
KCH1 132309Z 19006KT 27/07 A2993 RMK A01 T02670069  RH  028%=      5-min Rain = 0
KCH1 132310Z 18007KT 27/07 A2993 RMK A01 T02670069  RH  028%=      5-min Rain = 0
KCH1 132311Z 19006KT 27/07 A2993 RMK A01 T02660069  RH  029%=      5-min Rain = 0
KCH1 132312Z 18009KT 27/07 A2993 RMK A01 T02660069  RH  028%=      5-min Rain = 0
KCH1 132313Z 18008KT 27/07 A2993 RMK A01 T02660068  RH  028%=      5-min Rain = 0
KCH1 132314Z 18008KT 27/07 A2993 RMK A01 T02660068  RH  028%=      5-min Rain = 0
KCH1 132315Z 18008KT 27/07 A2993 RMK A01 T02660066  RH  028%=      5-min Rain = 0
KCH1 132316Z 17006KT 27/07 A2994 RMK A01 T02660068  RH  028%=      5-min Rain = 0
KCH1 132317Z 18009KT 27/07 A2994 RMK A01 T02660068  RH  028%=      5-min Rain = 0
KCH1 132318Z 18007KT 27/07 A2994 RMK A01 T02660067  RH  028%=      5-min Rain = 0
KCH1 132319Z 17005KT 27/07 A2994 RMK A01 T02650069  RH  029%=      5-min Rain = 0
KCH1 132320Z 17008KT 27/07 A2994 RMK A01 T02650069  RH  029%=      5-min Rain = 0
KCH1 132321Z 18006KT 26/07 A2994 RMK A01 T02640068  RH  029%=      5-min Rain = 0
KCH1 132322Z 18007KT 26/07 A2994 RMK A01 T02640069  RH  029%=      5-min Rain = 0
KCH1 132323Z 18006KT 26/07 A2994 RMK A01 T02630069  RH  029%=      5-min Rain = 0
KCH1 132324Z 18007KT 26/07 A2994 RMK A01 T02620068  RH  029%=      5-min Rain = 0
KCH1 132325Z 19006KT 26/07 A2994 RMK A01 T02620068  RH  029%=      5-min Rain = 0
KCH1 132326Z 18008KT 26/07 A2994 RMK A01 T02620069  RH  029%=      5-min Rain = 0
KCH1 132327Z 17006KT 26/07 A2994 RMK A01 T02620068  RH  029%=      5-min Rain = 0
KCH1 132328Z 18006KT 26/07 A2994 RMK A01 T02620069  RH  029%=      5-min Rain = 0
KCH1 132329Z 18006KT 26/07 A2994 RMK A01 T02610068  RH  029%=      5-min Rain = 0
KCH1 132330Z 18005KT 26/07 A2994 RMK A01 T02610069  RH  029%=      5-min Rain = 0
KCH1 132331Z 17006KT 26/07 A2994 RMK A01 T02600069  RH  030%=      5-min Rain = 0
KCH1 132332Z 17006KT 26/07 A2994 RMK A01 T02600068  RH  029%=      5-min Rain = 0
KCH1 132333Z 18005KT 26/07 A2994 RMK A01 T02600069  RH  030%=      5-min Rain = 0
KCH1 132334Z 17006KT 26/07 A2994 RMK A01 T02600070  RH  030%=      5-min Rain = 0
KCH1 132335Z 18006KT 26/07 A2994 RMK A01 T02590070  RH  030%=      5-min Rain = 0
KCH1 132336Z 17006KT 26/07 A2994 RMK A01 T02590070  RH  030%=      5-min Rain = 0
KCH1 132337Z 18006KT 26/07 A2994 RMK A01 T02590070  RH  030%=      5-min Rain = 0
KCH1 132338Z 18005KT 26/07 A2994 RMK A01 T02580071  RH  030%=      5-min Rain = 0
KCH1 132339Z 18006KT 26/07 A2994 RMK A01 T02580071  RH  030%=      5-min Rain = 0
KCH1 132340Z 18005KT 26/07 A2994 RMK A01 T02570070  RH  030%=      5-min Rain = 0
KCH1 132341Z 18006KT 26/07 A2995 RMK A01 T02570071  RH  030%=      5-min Rain = 0
KCH1 132342Z 18005KT 26/07 A2995 RMK A01 T02560070  RH  030%=      5-min Rain = 0
KCH1 132343Z 18005KT 26/07 A2995 RMK A01 T02560071  RH  031%=      5-min Rain = 0
KCH1 132344Z 18005KT 26/07 A2995 RMK A01 T02560071  RH  031%=      5-min Rain = 0
KCH1 132345Z 18005KT 26/07 A2995 RMK A01 T02550071  RH  031%=      5-min Rain = 0
KCH1 132346Z 18005KT 26/07 A2995 RMK A01 T02550071  RH  031%=      5-min Rain = 0
KCH1 132347Z 18004KT 25/07 A2994 RMK A01 T02540071  RH  031%=      5-min Rain = 0
KCH1 132348Z 18004KT 25/07 A2994 RMK A01 T02530071  RH  031%=      5-min Rain = 0
KCH1 132349Z 18004KT 25/07 A2994 RMK A01 T02530071  RH  031%=      5-min Rain = 0
KCH1 132350Z 18005KT 25/07 A2994 RMK A01 T02520071  RH  031%=      5-min Rain = 0
KCH1 132351Z 18004KT 25/07 A2995 RMK A01 T02510071  RH  032%=      5-min Rain = 0
KCH1 132352Z 18005KT 25/07 A2994 RMK A01 T02510071  RH  032%=      5-min Rain = 0
KCH1 132353Z 18005KT 25/07 A2994 RMK A01 T02500071  RH  032%=      5-min Rain = 0
KCH1 132354Z 18005KT 25/07 A2994 RMK A01 T02500071  RH  032%=      5-min Rain = 0
KCH1 132355Z 18005KT 25/07 A2994 RMK A01 T02500071  RH  032%=      5-min Rain = 0
KCH1 132356Z 18005KT 25/07 A2994 RMK A01 T02500071  RH  032%=      5-min Rain = 0
KCH1 132357Z 18005KT 25/07 A2994 RMK A01 T02490071  RH  032%=      5-min Rain = 0
KCH1 132358Z 19005KT 25/07 A2994 RMK A01 T02490071  RH  032%=      5-min Rain = 0
KCH1 132359Z 19005KT 25/07 A2994 RMK A01 T02480072  RH  032%=      5-min Rain = 0
KCH1 140000Z 19006KT 25/07 A2995 RMK A01 T02470071  RH  032%=      5-min Rain = 0
KCH1 140001Z 19006KT 25/07 A2995 RMK A01 T02470072  RH  033%=      5-min Rain = 0
KCH1 140002Z 19006KT 25/07 A2995 RMK A01 T02460071  RH  033%=      5-min Rain = 0
KCH1 140003Z 19008KT 25/07 A2995 RMK A01 T02460070  RH  032%=      5-min Rain = 0
KCH1 140004Z 19009KT 25/07 A2995 RMK A01 T02470069  RH  032%=      5-min Rain = 0
KCH1 140005Z 19008KT 25/07 A2995 RMK A01 T02490069  RH  032%=      5-min Rain = 0
KCH1 140006Z 19008KT 25/07 A2994 RMK A01 T02490069  RH  032%=      5-min Rain = 0
KCH1 140007Z 19007KT 25/07 A2994 RMK A01 T02490070  RH  032%=      5-min Rain = 0
KCH1 140008Z 20007KT 25/07 A2994 RMK A01 T02480069  RH  032%=      5-min Rain = 0
KCH1 140009Z 19007KT 25/07 A2994 RMK A01 T02480069  RH  032%=      5-min Rain = 0
KCH1 140010Z 19006KT 25/07 A2994 RMK A01 T02470069  RH  032%=      5-min Rain = 0
KCH1 140011Z 19007KT 25/07 A2994 RMK A01 T02470069  RH  032%=      5-min Rain = 0
KCH1 140012Z 19007KT 25/07 A2995 RMK A01 T02470068  RH  032%=      5-min Rain = 0
KCH1 140013Z 19007KT 25/07 A2995 RMK A01 T02470067  RH  032%=      5-min Rain = 0
KCH1 140014Z 20006KT 25/07 A2995 RMK A01 T02470067  RH  032%=      5-min Rain = 0
KCH1 140015Z 19007KT 25/07 A2995 RMK A01 T02460067  RH  032%=      5-min Rain = 0
KCH1 140016Z 20006KT 25/07 A2995 RMK A01 T02470068  RH  032%=      5-min Rain = 0
KCH1 140017Z 20007KT 25/07 A2995 RMK A01 T02460067  RH  032%=      5-min Rain = 0
KCH1 140018Z 19007KT 25/07 A2995 RMK A01 T02460067  RH  032%=      5-min Rain = 0
KCH1 140019Z 20007KT 25/07 A2995 RMK A01 T02460066  RH  032%=      5-min Rain = 0
KCH1 140020Z 19005KT 25/07 A2995 RMK A01 T02450067  RH  032%=      5-min Rain = 0
KCH1 140021Z 19006KT 25/07 A2995 RMK A01 T02450067  RH  032%=      5-min Rain = 0
KCH1 140022Z 20006KT 24/07 A2995 RMK A01 T02440067  RH  032%=      5-min Rain = 0
KCH1 140023Z 19006KT 24/07 A2995 RMK A01 T02430067  RH  032%=      5-min Rain = 0
KCH1 140024Z 19006KT 24/07 A2995 RMK A01 T02430067  RH  032%=      5-min Rain = 0
KCH1 140025Z 20007KT 24/07 A2995 RMK A01 T02430067  RH  032%=      5-min Rain = 0
KCH1 140026Z 20006KT 24/07 A2995 RMK A01 T02430067  RH  032%=      5-min Rain = 0
KCH1 140027Z 20007KT 24/07 A2995 RMK A01 T02420067  RH  032%=      5-min Rain = 0
KCH1 140028Z 19008KT 24/07 A2995 RMK A01 T02410067  RH  033%=      5-min Rain = 0
KCH1 140029Z 19007KT 24/07 A2995 RMK A01 T02410067  RH  033%=      5-min Rain = 0
KCH1 140030Z 20008KT 24/07 A2995 RMK A01 T02410067  RH  033%=      5-min Rain = 0
KCH1 140031Z 20007KT 24/07 A2995 RMK A01 T02400067  RH  033%=      5-min Rain = 0
KCH1 140032Z 20009KT 24/07 A2995 RMK A01 T02400067  RH  033%=      5-min Rain = 0
KCH1 140033Z 20010KT 24/07 A2995 RMK A01 T02400067  RH  033%=      5-min Rain = 0
KCH1 140034Z 20009G14KT 24/07 A2995 RMK A01 T02400067  RH  033%=      5-min Rain = 0
KCH1 140035Z 20009KT 24/07 A2995 RMK A01 T02400067  RH  033%=      5-min Rain = 0
KCH1 140036Z 19008KT 24/07 A2995 RMK A01 T02390067  RH  033%=      5-min Rain = 0
KCH1 140037Z 20009KT 24/07 A2995 RMK A01 T02390068  RH  033%=      5-min Rain = 0
KCH1 140038Z 20008KT 24/07 A2996 RMK A01 T02380068  RH  033%=      5-min Rain = 0
KCH1 140039Z 20009KT 24/07 A2996 RMK A01 T02370067  RH  033%=      5-min Rain = 0
KCH1 140040Z 20009KT 24/07 A2996 RMK A01 T02380068  RH  034%=      5-min Rain = 0
KCH1 140041Z 21008KT 24/07 A2996 RMK A01 T02370068  RH  034%=      5-min Rain = 0
KCH1 140042Z 21006KT 24/07 A2996 RMK A01 T02370068  RH  034%=      5-min Rain = 0
KCH1 140043Z 21006KT 24/07 A2996 RMK A01 T02360068  RH  034%=      5-min Rain = 0
KCH1 140044Z 20006KT 24/07 A2996 RMK A01 T02350069  RH  034%=      5-min Rain = 0
KCH1 140045Z 20006KT 24/07 A2996 RMK A01 T02350069  RH  034%=      5-min Rain = 0
KCH1 140046Z 20006KT 23/07 A2996 RMK A01 T02340069  RH  035%=      5-min Rain = 0
KCH1 140047Z 20005KT 23/07 A2996 RMK A01 T02330069  RH  035%=      5-min Rain = 0
KCH1 140048Z 20006KT 23/07 A2996 RMK A01 T02330069  RH  035%=      5-min Rain = 0
KCH1 140049Z 20005KT 23/07 A2996 RMK A01 T02320069  RH  035%=      5-min Rain = 0
KCH1 140050Z 20006KT 23/07 A2996 RMK A01 T02320069  RH  035%=      5-min Rain = 0
KCH1 140051Z 20006KT 23/07 A2996 RMK A01 T02320069  RH  035%=      5-min Rain = 0
KCH1 140052Z 20007KT 23/07 A2996 RMK A01 T02310068  RH  035%=      5-min Rain = 0
KCH1 140053Z 20007KT 23/07 A2996 RMK A01 T02310068  RH  035%=      5-min Rain = 0
KCH1 140054Z 20008KT 23/07 A2996 RMK A01 T02300068  RH  035%=      5-min Rain = 0
KCH1 140055Z 20007KT 23/07 A2996 RMK A01 T02300067  RH  035%=      5-min Rain = 0
KCH1 140056Z 20006KT 23/07 A2996 RMK A01 T02300067  RH  035%=      5-min Rain = 0
KCH1 140057Z 19006KT 23/07 A2996 RMK A01 T02300067  RH  035%=      5-min Rain = 0
KCH1 140058Z 19006KT 23/07 A2996 RMK A01 T02290066  RH  035%=      5-min Rain = 0
KCH1 140059Z 19007KT 23/07 A2996 RMK A01 T02290067  RH  035%=      5-min Rain = 0
KCH1 140100Z 19007KT 23/07 A2996 RMK A01 T02280066  RH  035%=      5-min Rain = 0
KCH1 140101Z 19007KT 23/07 A2996 RMK A01 T02280066  RH  035%=      5-min Rain = 0
KCH1 140102Z 19006KT 23/07 A2996 RMK A01 T02280066  RH  035%=      5-min Rain = 0
KCH1 140103Z 19006KT 23/07 A2996 RMK A01 T02270066  RH  035%=      5-min Rain = 0
KCH1 140104Z 19006KT 23/07 A2996 RMK A01 T02260066  RH  036%=      5-min Rain = 0
KCH1 140105Z 19006KT 23/07 A2996 RMK A01 T02250066  RH  036%=      5-min Rain = 0
KCH1 140106Z 19007KT 23/07 A2996 RMK A01 T02250066  RH  036%=      5-min Rain = 0
KCH1 140107Z 19006KT 23/07 A2996 RMK A01 T02250066  RH  036%=      5-min Rain = 0
KCH1 140108Z 20008KT 23/07 A2996 RMK A01 T02250066  RH  036%=      5-min Rain = 0
KCH1 140109Z 19007KT 22/07 A2996 RMK A01 T02240065  RH  036%=      5-min Rain = 0
KCH1 140110Z 19007KT 22/07 A2996 RMK A01 T02240065  RH  036%=      5-min Rain = 0
KCH1 140111Z 19007KT 22/07 A2996 RMK A01 T02240065  RH  036%=      5-min Rain = 0
KCH1 140112Z 20007KT 22/07 A2996 RMK A01 T02240065  RH  036%=      5-min Rain = 0
KCH1 140113Z 20006KT 22/07 A2996 RMK A01 T02240065  RH  036%=      5-min Rain = 0
KCH1 140114Z 20005KT 22/07 A2996 RMK A01 T02240065  RH  036%=      5-min Rain = 0
KCH1 140115Z 21006KT 22/07 A2996 RMK A01 T02240065  RH  036%=      5-min Rain = 0
KCH1 140116Z 21006KT 22/07 A2996 RMK A01 T02230065  RH  036%=      5-min Rain = 0
KCH1 140117Z 20007KT 22/07 A2996 RMK A01 T02230065  RH  036%=      5-min Rain = 0
KCH1 140118Z 21007KT 22/07 A2997 RMK A01 T02230065  RH  036%=      5-min Rain = 0
KCH1 140119Z 21006KT 22/07 A2997 RMK A01 T02230065  RH  036%=      5-min Rain = 0
KCH1 140120Z 21006KT 22/07 A2997 RMK A01 T02220065  RH  036%=      5-min Rain = 0
KCH1 140121Z 21006KT 22/07 A2997 RMK A01 T02220065  RH  036%=      5-min Rain = 0
KCH1 140122Z 21007KT 22/07 A2997 RMK A01 T02220065  RH  036%=      5-min Rain = 0
KCH1 140123Z 21006KT 22/06 A2997 RMK A01 T02220064  RH  036%=      5-min Rain = 0
KCH1 140124Z 20006KT 22/06 A2997 RMK A01 T02220064  RH  036%=      5-min Rain = 0
KCH1 140125Z 21006KT 22/06 A2997 RMK A01 T02220064  RH  036%=      5-min Rain = 0
KCH1 140126Z 21006KT 22/06 A2997 RMK A01 T02220064  RH  036%=      5-min Rain = 0
KCH1 140127Z 21007KT 22/06 A2997 RMK A01 T02220064  RH  036%=      5-min Rain = 0
KCH1 140128Z 21007KT 22/06 A2997 RMK A01 T02220064  RH  036%=      5-min Rain = 0
KCH1 140129Z 20007KT 22/06 A2997 RMK A01 T02220064  RH  036%=      5-min Rain = 0
KCH1 140130Z 20007KT 22/06 A2997 RMK A01 T02220064  RH  036%=      5-min Rain = 0
KCH1 140131Z 20007KT 22/06 A2997 RMK A01 T02210064  RH  036%=      5-min Rain = 0
KCH1 140132Z 20007KT 22/06 A2997 RMK A01 T02210064  RH  036%=      5-min Rain = 0
KCH1 140133Z 20007KT 22/06 A2997 RMK A01 T02210063  RH  036%=      5-min Rain = 0
KCH1 140134Z 21006KT 22/06 A2997 RMK A01 T02210063  RH  036%=      5-min Rain = 0
KCH1 140135Z 21006KT 22/06 A2997 RMK A01 T02210064  RH  036%=      5-min Rain = 0
KCH1 140136Z 21006KT 22/06 A2997 RMK A01 T02210064  RH  036%=      5-min Rain = 0
KCH1 140137Z 21006KT 22/06 A2997 RMK A01 T02210064  RH  036%=      5-min Rain = 0
KCH1 140138Z 20005KT 22/06 A2997 RMK A01 T02210064  RH  036%=      5-min Rain = 0
KCH1 140139Z 21006KT 22/06 A2997 RMK A01 T02200064  RH  036%=      5-min Rain = 0
KCH1 140140Z 20005KT 22/06 A2997 RMK A01 T02190064  RH  036%=      5-min Rain = 0
KCH1 140141Z 21005KT 22/07 A2997 RMK A01 T02200065  RH  037%=      5-min Rain = 0
KCH1 140142Z 21006KT 22/06 A2997 RMK A01 T02190064  RH  037%=      5-min Rain = 0
KCH1 140143Z 21006KT 22/06 A2997 RMK A01 T02190064  RH  037%=      5-min Rain = 0
KCH1 140144Z 21006KT 22/06 A2997 RMK A01 T02190064  RH  037%=      5-min Rain = 0
KCH1 140145Z 21006KT 22/06 A2997 RMK A01 T02190064  RH  037%=      5-min Rain = 0
KCH1 140146Z 21005KT 22/06 A2997 RMK A01 T02190064  RH  037%=      5-min Rain = 0
KCH1 140147Z 21005KT 22/06 A2997 RMK A01 T02190064  RH  037%=      5-min Rain = 0
KCH1 140148Z 21006KT 22/06 A2997 RMK A01 T02180064  RH  037%=      5-min Rain = 0
KCH1 140149Z 21006KT 22/06 A2997 RMK A01 T02180064  RH  037%=      5-min Rain = 0
KCH1 140150Z 20006KT 22/07 A2997 RMK A01 T02180065  RH  037%=      5-min Rain = 0
KCH1 140151Z 20006KT 22/07 A2997 RMK A01 T02180065  RH  037%=      5-min Rain = 0
KCH1 140152Z 20006KT 22/06 A2997 RMK A01 T02170064  RH  037%=      5-min Rain = 0
KCH1 140153Z 20006KT 22/07 A2997 RMK A01 T02170065  RH  037%=      5-min Rain = 0
KCH1 140154Z 20006KT 22/07 A2997 RMK A01 T02170065  RH  037%=      5-min Rain = 0
KCH1 140155Z 20006KT 22/07 A2997 RMK A01 T02160065  RH  037%=      5-min Rain = 0
KCH1 140156Z 20006KT 22/07 A2997 RMK A01 T02160065  RH  038%=      5-min Rain = 0
KCH1 140157Z 20006KT 22/07 A2997 RMK A01 T02160065  RH  038%=      5-min Rain = 0
KCH1 140158Z 19005KT 22/07 A2997 RMK A01 T02150065  RH  038%=      5-min Rain = 0
KCH1 140159Z 19006KT 22/07 A2997 RMK A01 T02150065  RH  038%=      5-min Rain = 0
KCH1 140200Z 19006KT 21/07 A2997 RMK A01 T02140065  RH  038%=      5-min Rain = 0
KCH1 140201Z 20005KT 21/07 A2997 RMK A01 T02140065  RH  038%=      5-min Rain = 0
KCH1 140202Z 19006KT 21/07 A2997 RMK A01 T02140065  RH  038%=      5-min Rain = 0
KCH1 140203Z 19006KT 21/06 A2997 RMK A01 T02140064  RH  038%=      5-min Rain = 0
KCH1 140204Z 19005KT 21/07 A2998 RMK A01 T02140065  RH  038%=      5-min Rain = 0
KCH1 140205Z 18005KT 21/07 A2998 RMK A01 T02130065  RH  038%=      5-min Rain = 0
KCH1 140206Z 18005KT 21/07 A2998 RMK A01 T02130066  RH  039%=      5-min Rain = 0
KCH1 140207Z 18004KT 21/07 A2998 RMK A01 T02110066  RH  039%=      5-min Rain = 0
KCH1 140208Z 18004KT 21/07 A2998 RMK A01 T02110066  RH  039%=      5-min Rain = 0
KCH1 140209Z 19004KT 21/07 A2998 RMK A01 T02100066  RH  039%=      5-min Rain = 0
KCH1 140210Z 19005KT 21/07 A2998 RMK A01 T02090065  RH  039%=      5-min Rain = 0
KCH1 140211Z 19005KT 21/07 A2998 RMK A01 T02090066  RH  039%=      5-min Rain = 0
KCH1 140212Z 20004KT 21/07 A2998 RMK A01 T02090066  RH  039%=      5-min Rain = 0
KCH1 140213Z 20004KT 21/07 A2998 RMK A01 T02080066  RH  040%=      5-min Rain = 0
KCH1 140214Z 20005KT 21/07 A2998 RMK A01 T02080066  RH  040%=      5-min Rain = 0
KCH1 140215Z 21003KT 21/07 A2998 RMK A01 T02080066  RH  040%=      5-min Rain = 0
KCH1 140216Z 21004KT 21/07 A2998 RMK A01 T02080066  RH  040%=      5-min Rain = 0
KCH1 140217Z 20004KT 21/07 A2998 RMK A01 T02080066  RH  040%=      5-min Rain = 0
KCH1 140218Z 19004KT 21/07 A2998 RMK A01 T02080065  RH  039%=      5-min Rain = 0
KCH1 140219Z 19004KT 21/07 A2998 RMK A01 T02080066  RH  039%=      5-min Rain = 0
KCH1 140220Z 19006KT 21/07 A2998 RMK A01 T02080066  RH  040%=      5-min Rain = 0
KCH1 140221Z 21007KT 21/06 A2998 RMK A01 T02080064  RH  039%=      5-min Rain = 0
KCH1 140222Z 19007KT 21/06 A2998 RMK A01 T02110064  RH  039%=      5-min Rain = 0
KCH1 140223Z 19006KT 21/06 A2998 RMK A01 T02120064  RH  038%=      5-min Rain = 0
KCH1 140224Z 20006KT 21/06 A2998 RMK A01 T02130063  RH  038%=      5-min Rain = 0
KCH1 140225Z 18004KT 22/06 A2998 RMK A01 T02150064  RH  038%=      5-min Rain = 0
KCH1 140226Z 18005KT 21/07 A2998 RMK A01 T02140065  RH  038%=      5-min Rain = 0
KCH1 140227Z 17005KT 21/07 A2998 RMK A01 T02140065  RH  038%=      5-min Rain = 0
KCH1 140228Z 17004KT 21/07 A2999 RMK A01 T02120065  RH  038%=      5-min Rain = 0
KCH1 140229Z 17004KT 21/07 A2999 RMK A01 T02110066  RH  039%=      5-min Rain = 0
KCH1 140230Z 18005KT 21/07 A2999 RMK A01 T02100065  RH  039%=      5-min Rain = 0
KCH1 140231Z 17005KT 21/07 A2999 RMK A01 T02100065  RH  039%=      5-min Rain = 0
KCH1 140232Z 17004KT 21/06 A2999 RMK A01 T02100064  RH  039%=      5-min Rain = 0
KCH1 140233Z 17004KT 21/07 A2999 RMK A01 T02100065  RH  039%=      5-min Rain = 0
KCH1 140234Z 16004KT 21/07 A2999 RMK A01 T02100065  RH  039%=      5-min Rain = 0
KCH1 140235Z 16003KT 21/07 A2999 RMK A01 T02090066  RH  039%=      5-min Rain = 0
KCH1 140236Z 16004KT 21/07 A2999 RMK A01 T02080066  RH  040%=      5-min Rain = 0
KCH1 140237Z 16003KT 21/07 A2999 RMK A01 T02070065  RH  040%=      5-min Rain = 0
KCH1 140238Z 16003KT 21/07 A2999 RMK A01 T02070065  RH  040%=      5-min Rain = 0
KCH1 140239Z 16003KT 21/07 A2999 RMK A01 T02070066  RH  040%=      5-min Rain = 0
KCH1 140240Z 15003KT 21/07 A2999 RMK A01 T02070065  RH  040%=      5-min Rain = 0
KCH1 140241Z 16003KT 21/07 A2999 RMK A01 T02060065  RH  040%=      5-min Rain = 0
KCH1 140242Z 15003KT 21/07 A2999 RMK A01 T02070066  RH  040%=      5-min Rain = 0
KCH1 140243Z 15003KT 21/07 A2999 RMK A01 T02060066  RH  040%=      5-min Rain = 0
KCH1 140244Z 14002KT 21/07 A2999 RMK A01 T02050067  RH  041%=      5-min Rain = 0
KCH1 140245Z 13002KT 20/07 A2999 RMK A01 T02040068  RH  041%=      5-min Rain = 0
KCH1 140246Z 12001KT 20/07 A2999 RMK A01 T02020069  RH  042%=      5-min Rain = 0
KCH1 140247Z 09001KT 20/07 A2999 RMK A01 T02010069  RH  042%=      5-min Rain = 0
KCH1 140248Z 11001KT 20/07 A2999 RMK A01 T01990069  RH  043%=      5-min Rain = 0
KCH1 140249Z 10001KT 20/07 A2999 RMK A01 T01980070  RH  043%=      5-min Rain = 0
KCH1 140250Z 11001KT 20/07 A2999 RMK A01 T01970070  RH  044%=      5-min Rain = 0
KCH1 140251Z 08002KT 20/07 A2999 RMK A01 T01960069  RH  044%=      5-min Rain = 0
KCH1 140252Z 07003KT 20/07 A2999 RMK A01 T01960069  RH  044%=      5-min Rain = 0
KCH1 140253Z 08003KT 20/07 A2999 RMK A01 T01950070  RH  044%=      5-min Rain = 0
KCH1 140254Z 08004KT 19/07 A2999 RMK A01 T01940071  RH  045%=      5-min Rain = 0
KCH1 140255Z 08004KT 19/07 A2999 RMK A01 T01920071  RH  045%=      5-min Rain = 0
KCH1 140256Z 07003KT 19/07 A2999 RMK A01 T01910072  RH  046%=      5-min Rain = 0
KCH1 140257Z 06003KT 19/07 A2999 RMK A01 T01900073  RH  047%=      5-min Rain = 0
KCH1 140258Z 06003KT 19/07 A2999 RMK A01 T01890072  RH  047%=      5-min Rain = 0
KCH1 140259Z 07003KT 19/07 A2999 RMK A01 T01880071  RH  046%=      5-min Rain = 0
KCH1 140300Z 07003KT 19/07 A2999 RMK A01 T01880071  RH  047%=      5-min Rain = 0
KCH1 140301Z 06004KT 19/07 A2999 RMK A01 T01880071  RH  047%=      5-min Rain = 0
KCH1 140302Z 07003KT 19/07 A2999 RMK A01 T01870071  RH  047%=      5-min Rain = 0
KCH1 140303Z 08003KT 19/07 A2999 RMK A01 T01870071  RH  047%=      5-min Rain = 0
KCH1 140304Z 08003KT 19/07 A2999 RMK A01 T01870071  RH  047%=      5-min Rain = 0
KCH1 140305Z 09003KT 19/07 A2999 RMK A01 T01870071  RH  047%=      5-min Rain = 0
KCH1 140306Z 09003KT 19/07 A2999 RMK A01 T01870071  RH  047%=      5-min Rain = 0
KCH1 140307Z 11002KT 19/07 A2999 RMK A01 T01870071  RH  047%=      5-min Rain = 0
KCH1 140308Z 11003KT 19/07 A2999 RMK A01 T01870070  RH  046%=      5-min Rain = 0
KCH1 140309Z 12003KT 19/07 A2999 RMK A01 T01870069  RH  046%=      5-min Rain = 0
KCH1 140310Z 12003KT 19/07 A2999 RMK A01 T01870070  RH  046%=      5-min Rain = 0
KCH1 140311Z 12003KT 19/07 A2999 RMK A01 T01870070  RH  046%=      5-min Rain = 0
KCH1 140312Z 13003KT 19/07 A2999 RMK A01 T01880070  RH  046%=      5-min Rain = 0
KCH1 140313Z 13003KT 19/07 A2999 RMK A01 T01880070  RH  046%=      5-min Rain = 0
KCH1 140314Z 14004KT 19/07 A2999 RMK A01 T01880071  RH  046%=      5-min Rain = 0
KCH1 140315Z 14004KT 19/07 A2999 RMK A01 T01880071  RH  046%=      5-min Rain = 0
KCH1 140316Z 13004KT 19/07 A2999 RMK A01 T01870070  RH  046%=      5-min Rain = 0
KCH1 140317Z 13004KT 19/07 A2999 RMK A01 T01880070  RH  046%=      5-min Rain = 0
KCH1 140318Z 13004KT 19/07 A2999 RMK A01 T01870070  RH  046%=      5-min Rain = 0
KCH1 140319Z 13004KT 19/07 A2999 RMK A01 T01870069  RH  046%=      5-min Rain = 0
KCH1 140320Z 13003KT 19/07 A2999 RMK A01 T01880069  RH  046%=      5-min Rain = 0
KCH1 140321Z 13004KT 19/07 A2999 RMK A01 T01880070  RH  046%=      5-min Rain = 0
KCH1 140322Z 13004KT 19/07 A2999 RMK A01 T01880070  RH  046%=      5-min Rain = 0
KCH1 140323Z 13004KT 19/07 A2999 RMK A01 T01880070  RH  046%=      5-min Rain = 0
KCH1 140324Z 13004KT 19/07 A2999 RMK A01 T01880070  RH  046%=      5-min Rain = 0
KCH1 140325Z 12003KT 19/07 A2999 RMK A01 T01880071  RH  046%=      5-min Rain = 0
KCH1 140326Z 11003KT 19/07 A2999 RMK A01 T01870071  RH  047%=      5-min Rain = 0
KCH1 140327Z 10003KT 19/07 A2999 RMK A01 T01860072  RH  047%=      5-min Rain = 0
KCH1 140328Z 08002KT 19/07 A2999 RMK A01 T01850072  RH  048%=      5-min Rain = 0
KCH1 140329Z 08002KT 19/07 A2999 RMK A01 T01850072  RH  048%=      5-min Rain = 0
KCH1 140330Z 07002KT 18/07 A2999 RMK A01 T01840073  RH  048%=      5-min Rain = 0
KCH1 140331Z 07002KT 18/07 A2999 RMK A01 T01830072  RH  048%=      5-min Rain = 0
KCH1 140332Z 08002KT 18/07 A2999 RMK A01 T01830072  RH  048%=      5-min Rain = 0
KCH1 140333Z 08002KT 18/07 A2999 RMK A01 T01830071  RH  048%=      5-min Rain = 0
KCH1 140334Z 08002KT 18/07 A2999 RMK A01 T01830072  RH  048%=      5-min Rain = 0
KCH1 140335Z 09002KT 18/07 A2999 RMK A01 T01830071  RH  048%=      5-min Rain = 0
KCH1 140336Z 09002KT 18/07 A2999 RMK A01 T01830071  RH  048%=      5-min Rain = 0
KCH1 140337Z 10003KT 18/07 A2999 RMK A01 T01830071  RH  048%=      5-min Rain = 0
KCH1 140338Z 11003KT 18/07 A2999 RMK A01 T01820071  RH  048%=      5-min Rain = 0
KCH1 140339Z 12004KT 18/07 A2999 RMK A01 T01820071  RH  048%=      5-min Rain = 0
KCH1 140340Z 12004KT 18/07 A2999 RMK A01 T01820071  RH  048%=      5-min Rain = 0
KCH1 140341Z 12004KT 18/07 A2999 RMK A01 T01820071  RH  048%=      5-min Rain = 0
KCH1 140342Z 14004KT 18/07 A2999 RMK A01 T01820070  RH  048%=      5-min Rain = 0
KCH1 140343Z 14004KT 18/07 A2999 RMK A01 T01820071  RH  048%=      5-min Rain = 0
KCH1 140344Z 14004KT 18/07 A2999 RMK A01 T01820072  RH  048%=      5-min Rain = 0
KCH1 140345Z 14004KT 18/07 A2999 RMK A01 T01820071  RH  048%=      5-min Rain = 0
KCH1 140346Z 14004KT 18/07 A2999 RMK A01 T01820070  RH  048%=      5-min Rain = 0
KCH1 140347Z 13004KT 18/07 A2999 RMK A01 T01830071  RH  048%=      5-min Rain = 0
KCH1 140348Z 13004KT 18/07 A2999 RMK A01 T01830071  RH  048%=      5-min Rain = 0
KCH1 140349Z 12004KT 18/07 A2999 RMK A01 T01830071  RH  048%=      5-min Rain = 0
KCH1 140350Z 12004KT 18/07 A2999 RMK A01 T01840071  RH  048%=      5-min Rain = 0
KCH1 140351Z 12004KT 18/07 A2999 RMK A01 T01840071  RH  048%=      5-min Rain = 0
KCH1 140352Z 12003KT 18/07 A2999 RMK A01 T01830071  RH  048%=      5-min Rain = 0
KCH1 140353Z 12003KT 18/07 A2999 RMK A01 T01820072  RH  048%=      5-min Rain = 0
KCH1 140354Z 13003KT 18/07 A2999 RMK A01 T01810073  RH  049%=      5-min Rain = 0
KCH1 140355Z 13003KT 18/07 A2999 RMK A01 T01800073  RH  050%=      5-min Rain = 0
KCH1 140356Z 13003KT 18/07 A2999 RMK A01 T01790073  RH  050%=      5-min Rain = 0
KCH1 140357Z 12003KT 18/08 A2999 RMK A01 T01780075  RH  051%=      5-min Rain = 0
KCH1 140358Z 12003KT 18/08 A2999 RMK A01 T01770076  RH  052%=      5-min Rain = 0
KCH1 140359Z 12004KT 18/08 A2999 RMK A01 T01760075  RH  051%=      5-min Rain = 0
KCH1 140400Z 12003KT 18/07 A2999 RMK A01 T01760074  RH  051%=      5-min Rain = 0
KCH1 140401Z 13003KT 18/08 A2999 RMK A01 T01760075  RH  052%=      5-min Rain = 0
KCH1 140402Z 13003KT 18/07 A2999 RMK A01 T01760074  RH  051%=      5-min Rain = 0
KCH1 140403Z 13002KT 18/07 A2999 RMK A01 T01760074  RH  051%=      5-min Rain = 0
KCH1 140404Z 13003KT 18/07 A2999 RMK A01 T01760073  RH  051%=      5-min Rain = 0
KCH1 140405Z 13003KT 18/07 A2999 RMK A01 T01770073  RH  051%=      5-min Rain = 0
KCH1 140406Z 14002KT 18/07 A30 RMK A01 T01770073  RH  050%=      5-min Rain = 0
KCH1 140407Z 14002KT 18/07 A30 RMK A01 T01770072  RH  050%=      5-min Rain = 0
KCH1 140408Z 14003KT 18/07 A30 RMK A01 T01780072  RH  050%=      5-min Rain = 0
KCH1 140409Z 14002KT 18/07 A30 RMK A01 T01790073  RH  050%=      5-min Rain = 0
KCH1 140410Z 13002KT 18/07 A30 RMK A01 T01790072  RH  050%=      5-min Rain = 0
KCH1 140411Z 13002KT 18/07 A30 RMK A01 T01790072  RH  050%=      5-min Rain = 0
KCH1 140412Z 13003KT 18/07 A2999 RMK A01 T01790072  RH  050%=      5-min Rain = 0
KCH1 140413Z 13003KT 18/07 A2999 RMK A01 T01790072  RH  049%=      5-min Rain = 0
KCH1 140414Z 13003KT 18/07 A2999 RMK A01 T01790073  RH  050%=      5-min Rain = 0
KCH1 140415Z 13003KT 18/07 A2999 RMK A01 T01790073  RH  050%=      5-min Rain = 0
KCH1 140416Z 14003KT 18/07 A2999 RMK A01 T01800073  RH  050%=      5-min Rain = 0
KCH1 140417Z 14004KT 18/07 A2999 RMK A01 T01790074  RH  050%=      5-min Rain = 0
KCH1 140418Z 14004KT 18/07 A2999 RMK A01 T01790073  RH  050%=      5-min Rain = 0
KCH1 140419Z 14004KT 18/07 A2999 RMK A01 T01790074  RH  050%=      5-min Rain = 0
KCH1 140420Z 14004KT 18/07 A2999 RMK A01 T01780074  RH  050%=      5-min Rain = 0
KCH1 140421Z 14004KT 18/07 A2999 RMK A01 T01780074  RH  051%=      5-min Rain = 0
KCH1 140422Z 14004KT 18/07 A2999 RMK A01 T01780074  RH  050%=      5-min Rain = 0
KCH1 140423Z 14004KT 18/07 A2999 RMK A01 T01780073  RH  050%=      5-min Rain = 0
KCH1 140424Z 14004KT 18/07 A2999 RMK A01 T01780072  RH  050%=      5-min Rain = 0
KCH1 140425Z 14003KT 18/07 A2999 RMK A01 T01780072  RH  050%=      5-min Rain = 0
KCH1 140426Z 14003KT 18/07 A30 RMK A01 T01790072  RH  049%=      5-min Rain = 0
KCH1 140427Z 14003KT 18/07 A30 RMK A01 T01790072  RH  049%=      5-min Rain = 0
KCH1 140428Z 13003KT 18/07 A30 RMK A01 T01800072  RH  049%=      5-min Rain = 0
KCH1 140429Z 13003KT 18/07 A30 RMK A01 T01800072  RH  049%=      5-min Rain = 0
KCH1 140430Z 13002KT 18/07 A30 RMK A01 T01800072  RH  049%=      5-min Rain = 0
KCH1 140431Z 13002KT 18/07 A30 RMK A01 T01800073  RH  049%=      5-min Rain = 0
KCH1 140432Z 13002KT 18/07 A30 RMK A01 T01800073  RH  049%=      5-min Rain = 0
KCH1 140433Z 12002KT 18/07 A30 RMK A01 T01800073  RH  049%=      5-min Rain = 0
KCH1 140434Z 12002KT 18/07 A30 RMK A01 T01800073  RH  050%=      5-min Rain = 0
KCH1 140435Z 12002KT 18/07 A30 RMK A01 T01790072  RH  050%=      5-min Rain = 0
KCH1 140436Z 12002KT 18/07 A30 RMK A01 T01790074  RH  050%=      5-min Rain = 0
KCH1 140437Z 12002KT 18/07 A30 RMK A01 T01790074  RH  050%=      5-min Rain = 0
KCH1 140438Z 12003KT 18/07 A30 RMK A01 T01780074  RH  051%=      5-min Rain = 0
KCH1 140439Z 11002KT 18/07 A30 RMK A01 T01780074  RH  051%=      5-min Rain = 0
KCH1 140440Z 11002KT 18/08 A30 RMK A01 T01770075  RH  051%=      5-min Rain = 0
KCH1 140441Z 11001KT 18/08 A30 RMK A01 T01760076  RH  052%=      5-min Rain = 0
KCH1 140442Z 00000KT 18/08 A30 RMK A01 T01750076  RH  052%=      5-min Rain = 0
KCH1 140443Z 09000KT 18/08 A30 RMK A01 T01750075  RH  052%=      5-min Rain = 0
KCH1 140444Z 08001KT 17/07 A30 RMK A01 T01740074  RH  052%=      5-min Rain = 0
KCH1 140445Z 09001KT 18/07 A30 RMK A01 T01750074  RH  051%=      5-min Rain = 0
KCH1 140446Z 10002KT 18/07 A30 RMK A01 T01750072  RH  051%=      5-min Rain = 0
KCH1 140447Z 09002KT 18/07 A30 RMK A01 T01760073  RH  051%=      5-min Rain = 0
KCH1 140448Z 09002KT 18/07 A30 RMK A01 T01760072  RH  051%=      5-min Rain = 0
KCH1 140449Z 10002KT 18/07 A2999 RMK A01 T01770073  RH  051%=      5-min Rain = 0
KCH1 140450Z 10002KT 18/07 A2999 RMK A01 T01770074  RH  051%=      5-min Rain = 0
KCH1 140451Z 10002KT 18/07 A2999 RMK A01 T01770074  RH  051%=      5-min Rain = 0
KCH1 140452Z 09002KT 18/07 A2999 RMK A01 T01770074  RH  051%=      5-min Rain = 0
KCH1 140453Z 09001KT 18/07 A2999 RMK A01 T01770074  RH  051%=      5-min Rain = 0
KCH1 140454Z 07001KT 18/07 A2999 RMK A01 T01760073  RH  051%=      5-min Rain = 0
KCH1 140455Z 06001KT 18/07 A2999 RMK A01 T01760073  RH  051%=      5-min Rain = 0
KCH1 140456Z 06001KT 18/07 A2999 RMK A01 T01760073  RH  051%=      5-min Rain = 0
KCH1 140457Z 05001KT 18/07 A2999 RMK A01 T01760073  RH  051%=      5-min Rain = 0
KCH1 140458Z 05001KT 18/07 A2999 RMK A01 T01770073  RH  051%=      5-min Rain = 0
KCH1 140459Z 06001KT 18/07 A2999 RMK A01 T01770074  RH  051%=      5-min Rain = 0

Page generated in 0.0854 seconds.